PWSweather.com
Personal Weather Stations
Station Observations
GRACELEHAN
The Grace C. Lehan Memorial Weather Station, West Hartford, CT 06107

The Grace C. Lehan Memorial Weather StationWest Hartford, CT 06107

Lat: 41.745629, Lon: -72.7443516

Elevation: 136

Station Type: Davis Vantage Pro2 Plus

High Low Average
Temperature 59.1°F15.1°C 51.3°F10.7°C 54.0°F12.2°C
Dew Point 53.4°F11.9°C 47.9°F8.8°C 50.4°F10.2°C
Winds 12.0 mph 19.3 kmh Calm Calm 2.0 mph SSE3.2 kmh SSE
Wind Gusts 17.0 mph27.4 kmh -- 3.0 mph4.8 kmh
Humidity 94% 78% 88%
Pressure 30.30 in1026.1 mb 30.01 in1016.3 mb -
Precipitation 0.00 in0.0 mm - -
Hour Temp Dew Point Humidity Winds Wind Gusts Pressure Precip Precip Rate Daily Precip Total
12:00 AM 54.1°F12.3°C 48.4°F9.1°C 81% Calm Calm -- 30.02 in1016.6 mb 0.00 in0.0 mm 0.00 in0.0 mm 0.00 in0.0 mm
12:02 AM 54.0°F12.2°C 48.3°F9.1°C 81% Calm Calm -- 30.02 in1016.6 mb 0.00 in0.0 mm 0.00 in0.0 mm 0.00 in0.0 mm
12:04 AM 54.0°F12.2°C 48.3°F9.1°C 81% Calm Calm -- 30.02 in1016.6 mb 0.00 in0.0 mm 0.00 in0.0 mm 0.00 in0.0 mm
12:06 AM 54.0°F12.2°C 48.3°F9.1°C 81% Calm Calm -- 30.02 in1016.6 mb 0.00 in0.0 mm 0.00 in0.0 mm 0.00 in0.0 mm
12:08 AM 53.9°F12.2°C 48.2°F9.0°C 81% Calm Calm -- 30.02 in1016.6 mb 0.00 in0.0 mm 0.00 in0.0 mm 0.00 in0.0 mm
12:10 AM 53.9°F12.2°C 48.2°F9.0°C 81% Calm Calm -- 30.02 in1016.6 mb 0.00 in0.0 mm 0.00 in0.0 mm 0.00 in0.0 mm
12:12 AM 53.9°F12.2°C 48.2°F9.0°C 81% Calm Calm -- 30.01 in1016.3 mb 0.00 in0.0 mm 0.00 in0.0 mm 0.00 in0.0 mm
12:14 AM 53.8°F12.1°C 48.1°F8.9°C 81% Calm Calm -- 30.01 in1016.3 mb 0.00 in0.0 mm 0.00 in0.0 mm 0.00 in0.0 mm
12:16 AM 53.8°F12.1°C 48.1°F8.9°C 81% Calm Calm -- 30.01 in1016.3 mb 0.00 in0.0 mm 0.00 in0.0 mm 0.00 in0.0 mm
12:18 AM 53.7°F12.1°C 48.0°F8.9°C 81% Calm Calm -- 30.01 in1016.3 mb 0.00 in0.0 mm 0.00 in0.0 mm 0.00 in0.0 mm
12:20 AM 53.7°F12.1°C 48.0°F8.9°C 81% Calm Calm -- 30.01 in1016.3 mb 0.00 in0.0 mm 0.00 in0.0 mm 0.00 in0.0 mm
12:22 AM 53.6°F12.0°C 47.9°F8.8°C 81% Calm Calm -- 30.01 in1016.3 mb 0.00 in0.0 mm 0.00 in0.0 mm 0.00 in0.0 mm
12:24 AM 53.6°F12.0°C 47.9°F8.8°C 81% Calm Calm -- 30.01 in1016.3 mb 0.00 in0.0 mm 0.00 in0.0 mm 0.00 in0.0 mm
12:26 AM 53.6°F12.0°C 47.9°F8.8°C 81% Calm Calm -- 30.01 in1016.3 mb 0.00 in0.0 mm 0.00 in0.0 mm 0.00 in0.0 mm
12:28 AM 53.6°F12.0°C 48.3°F9.1°C 82% Calm Calm -- 30.01 in1016.3 mb 0.00 in0.0 mm 0.00 in0.0 mm 0.00 in0.0 mm
12:30 AM 53.5°F11.9°C 48.2°F9.0°C 82% Calm Calm -- 30.01 in1016.3 mb 0.00 in0.0 mm 0.00 in0.0 mm 0.00 in0.0 mm
12:32 AM 53.5°F11.9°C 48.2°F9.0°C 82% Calm Calm -- 30.01 in1016.3 mb 0.00 in0.0 mm 0.00 in0.0 mm 0.00 in0.0 mm
12:34 AM 53.4°F11.9°C 48.1°F8.9°C 82% Calm Calm -- 30.01 in1016.3 mb 0.00 in0.0 mm 0.00 in0.0 mm 0.00 in0.0 mm
12:36 AM 53.4°F11.9°C 48.1°F8.9°C 82% Calm Calm -- 30.01 in1016.3 mb 0.00 in0.0 mm 0.00 in0.0 mm 0.00 in0.0 mm
12:38 AM 53.3°F11.8°C 48.0°F8.9°C 82% Calm Calm -- 30.01 in1016.3 mb 0.00 in0.0 mm 0.00 in0.0 mm 0.00 in0.0 mm
12:40 AM 53.3°F11.8°C 48.0°F8.9°C 82% Calm Calm -- 30.01 in1016.3 mb 0.00 in0.0 mm 0.00 in0.0 mm 0.00 in0.0 mm
12:42 AM 53.3°F11.8°C 48.3°F9.1°C 83% Calm Calm -- 30.01 in1016.3 mb 0.00 in0.0 mm 0.00 in0.0 mm 0.00 in0.0 mm
12:44 AM 53.2°F11.8°C 48.2°F9.0°C 83% Calm Calm -- 30.01 in1016.3 mb 0.00 in0.0 mm 0.00 in0.0 mm 0.00 in0.0 mm
12:46 AM 53.2°F11.8°C 48.2°F9.0°C 83% Calm Calm -- 30.01 in1016.3 mb 0.00 in0.0 mm 0.00 in0.0 mm 0.00 in0.0 mm
12:48 AM 53.1°F11.7°C 48.1°F8.9°C 83% Calm Calm -- 30.01 in1016.3 mb 0.00 in0.0 mm 0.00 in0.0 mm 0.00 in0.0 mm
12:50 AM 53.1°F11.7°C 48.1°F8.9°C 83% Calm Calm -- 30.01 in1016.3 mb 0.00 in0.0 mm 0.00 in0.0 mm 0.00 in0.0 mm
12:52 AM 53.1°F11.7°C 48.4°F9.1°C 84% Calm Calm -- 30.01 in1016.3 mb 0.00 in0.0 mm 0.00 in0.0 mm 0.00 in0.0 mm
12:54 AM 53.0°F11.7°C 48.3°F9.1°C 84% Calm Calm -- 30.01 in1016.3 mb 0.00 in0.0 mm 0.00 in0.0 mm 0.00 in0.0 mm
12:56 AM 53.0°F11.7°C 48.3°F9.1°C 84% Calm Calm -- 30.01 in1016.3 mb 0.00 in0.0 mm 0.00 in0.0 mm 0.00 in0.0 mm
12:58 AM 53.0°F11.7°C 48.3°F9.1°C 84% Calm Calm -- 30.01 in1016.3 mb 0.00 in0.0 mm 0.00 in0.0 mm 0.00 in0.0 mm
01:00 AM 52.9°F11.6°C 48.2°F9.0°C 84% Calm Calm -- 30.01 in1016.3 mb 0.00 in0.0 mm 0.00 in0.0 mm 0.00 in0.0 mm
01:02 AM 52.9°F11.6°C 48.2°F9.0°C 84% Calm Calm -- 30.01 in1016.3 mb 0.00 in0.0 mm 0.00 in0.0 mm 0.00 in0.0 mm
01:04 AM 52.8°F11.6°C 48.1°F8.9°C 84% Calm Calm -- 30.01 in1016.3 mb 0.00 in0.0 mm 0.00 in0.0 mm 0.00 in0.0 mm
01:06 AM 52.8°F11.6°C 48.1°F8.9°C 84% Calm Calm -- 30.01 in1016.3 mb 0.00 in0.0 mm 0.00 in0.0 mm 0.00 in0.0 mm
01:08 AM 52.7°F11.5°C 48.3°F9.1°C 85% Calm Calm -- 30.01 in1016.3 mb 0.00 in0.0 mm 0.00 in0.0 mm 0.00 in0.0 mm
01:10 AM 52.7°F11.5°C 48.3°F9.1°C 85% Calm Calm -- 30.01 in1016.3 mb 0.00 in0.0 mm 0.00 in0.0 mm 0.00 in0.0 mm
01:12 AM 52.7°F11.5°C 48.3°F9.1°C 85% Calm Calm -- 30.01 in1016.3 mb 0.00 in0.0 mm 0.00 in0.0 mm 0.00 in0.0 mm
01:14 AM 52.6°F11.4°C 48.2°F9.0°C 85% Calm Calm -- 30.01 in1016.3 mb 0.00 in0.0 mm 0.00 in0.0 mm 0.00 in0.0 mm
01:16 AM 52.6°F11.4°C 48.2°F9.0°C 85% Calm Calm -- 30.01 in1016.3 mb 0.00 in0.0 mm 0.00 in0.0 mm 0.00 in0.0 mm
01:18 AM 52.6°F11.4°C 48.2°F9.0°C 85% Calm Calm -- 30.01 in1016.3 mb 0.00 in0.0 mm 0.00 in0.0 mm 0.00 in0.0 mm
01:20 AM 52.6°F11.4°C 48.2°F9.0°C 85% Calm Calm -- 30.01 in1016.3 mb 0.00 in0.0 mm 0.00 in0.0 mm 0.00 in0.0 mm
01:22 AM 52.6°F11.4°C 48.2°F9.0°C 85% Calm Calm -- 30.01 in1016.3 mb 0.00 in0.0 mm 0.00 in0.0 mm 0.00 in0.0 mm
01:24 AM 52.6°F11.4°C 48.5°F9.2°C 86% Calm Calm -- 30.01 in1016.3 mb 0.00 in0.0 mm 0.00 in0.0 mm 0.00 in0.0 mm
01:26 AM 52.6°F11.4°C 48.5°F9.2°C 86% Calm Calm -- 30.01 in1016.3 mb 0.00 in0.0 mm 0.00 in0.0 mm 0.00 in0.0 mm
01:28 AM 52.7°F11.5°C 48.6°F9.2°C 86% Calm Calm -- 30.02 in1016.6 mb 0.00 in0.0 mm 0.00 in0.0 mm 0.00 in0.0 mm
01:30 AM 52.7°F11.5°C 48.6°F9.2°C 86% 1.0 mph NE1.6 kmh NE 2.0 mph3.2 kmh 30.02 in1016.6 mb 0.00 in0.0 mm 0.00 in0.0 mm 0.00 in0.0 mm
01:32 AM 52.7°F11.5°C 48.6°F9.2°C 86% Calm Calm -- 30.02 in1016.6 mb 0.00 in0.0 mm 0.00 in0.0 mm 0.00 in0.0 mm
01:34 AM 52.7°F11.5°C 48.6°F9.2°C 86% Calm Calm -- 30.02 in1016.6 mb 0.00 in0.0 mm 0.00 in0.0 mm 0.00 in0.0 mm
01:36 AM 52.7°F11.5°C 48.6°F9.2°C 86% Calm Calm -- 30.02 in1016.6 mb 0.00 in0.0 mm 0.00 in0.0 mm 0.00 in0.0 mm
01:38 AM 52.7°F11.5°C 48.6°F9.2°C 86% Calm Calm -- 30.03 in1016.9 mb 0.00 in0.0 mm 0.00 in0.0 mm 0.00 in0.0 mm
01:40 AM 52.7°F11.5°C 48.6°F9.2°C 86% Calm Calm -- 30.03 in1016.9 mb 0.00 in0.0 mm 0.00 in0.0 mm 0.00 in0.0 mm
01:42 AM 52.8°F11.6°C 48.7°F9.3°C 86% Calm Calm -- 30.03 in1016.9 mb 0.00 in0.0 mm 0.00 in0.0 mm 0.00 in0.0 mm
01:44 AM 52.8°F11.6°C 49.0°F9.4°C 87% Calm Calm -- 30.03 in1016.9 mb 0.00 in0.0 mm 0.00 in0.0 mm 0.00 in0.0 mm
01:46 AM 52.8°F11.6°C 49.0°F9.4°C 87% Calm Calm -- 30.03 in1016.9 mb 0.00 in0.0 mm 0.00 in0.0 mm 0.00 in0.0 mm
01:48 AM 52.8°F11.6°C 48.7°F9.3°C 86% Calm Calm -- 30.03 in1016.9 mb 0.00 in0.0 mm 0.00 in0.0 mm 0.00 in0.0 mm
01:50 AM 52.9°F11.6°C 49.1°F9.5°C 87% Calm Calm -- 30.03 in1016.9 mb 0.00 in0.0 mm 0.00 in0.0 mm 0.00 in0.0 mm
01:52 AM 52.9°F11.6°C 49.1°F9.5°C 87% Calm Calm -- 30.03 in1016.9 mb 0.00 in0.0 mm 0.00 in0.0 mm 0.00 in0.0 mm
01:54 AM 52.9°F11.6°C 49.1°F9.5°C 87% Calm Calm -- 30.03 in1016.9 mb 0.00 in0.0 mm 0.00 in0.0 mm 0.00 in0.0 mm
01:56 AM 53.0°F11.7°C 49.2°F9.6°C 87% Calm Calm -- 30.03 in1016.9 mb 0.00 in0.0 mm 0.00 in0.0 mm 0.00 in0.0 mm
01:58 AM 53.0°F11.7°C 49.2°F9.6°C 87% Calm Calm -- 30.03 in1016.9 mb 0.00 in0.0 mm 0.00 in0.0 mm 0.00 in0.0 mm
02:00 AM 53.0°F11.7°C 49.2°F9.6°C 87% Calm Calm -- 30.02 in1016.6 mb 0.00 in0.0 mm 0.00 in0.0 mm 0.00 in0.0 mm
02:02 AM 53.0°F11.7°C 49.2°F9.6°C 87% Calm Calm -- 30.03 in1016.9 mb 0.00 in0.0 mm 0.00 in0.0 mm 0.00 in0.0 mm
02:04 AM 53.1°F11.7°C 49.3°F9.6°C 87% Calm Calm -- 30.03 in1016.9 mb 0.00 in0.0 mm 0.00 in0.0 mm 0.00 in0.0 mm
02:06 AM 53.1°F11.7°C 49.3°F9.6°C 87% Calm Calm -- 30.03 in1016.9 mb 0.00 in0.0 mm 0.00 in0.0 mm 0.00 in0.0 mm
02:08 AM 53.1°F11.7°C 49.7°F9.8°C 88% Calm Calm -- 30.03 in1016.9 mb 0.00 in0.0 mm 0.00 in0.0 mm 0.00 in0.0 mm
02:10 AM 53.2°F11.8°C 49.4°F9.7°C 87% Calm Calm -- 30.03 in1016.9 mb 0.00 in0.0 mm 0.00 in0.0 mm 0.00 in0.0 mm
02:12 AM 53.2°F11.8°C 49.7°F9.8°C 88% Calm Calm -- 30.03 in1016.9 mb 0.00 in0.0 mm 0.00 in0.0 mm 0.00 in0.0 mm
02:14 AM 53.2°F11.8°C 49.7°F9.8°C 88% Calm Calm -- 30.03 in1016.9 mb 0.00 in0.0 mm 0.00 in0.0 mm 0.00 in0.0 mm
02:16 AM 53.3°F11.8°C 49.8°F9.9°C 88% 1.0 mph NE1.6 kmh NE 1.0 mph1.6 kmh 30.03 in1016.9 mb 0.00 in0.0 mm 0.00 in0.0 mm 0.00 in0.0 mm
02:18 AM 53.3°F11.8°C 50.2°F10.1°C 89% Calm Calm -- 30.03 in1016.9 mb 0.00 in0.0 mm 0.00 in0.0 mm 0.00 in0.0 mm
02:20 AM 53.3°F11.8°C 50.2°F10.1°C 89% Calm Calm -- 30.03 in1016.9 mb 0.00 in0.0 mm 0.00 in0.0 mm 0.00 in0.0 mm
02:22 AM 53.3°F11.8°C 50.2°F10.1°C 89% Calm Calm -- 30.03 in1016.9 mb 0.00 in0.0 mm 0.00 in0.0 mm 0.00 in0.0 mm
02:24 AM 53.4°F11.9°C 50.3°F10.2°C 89% Calm Calm -- 30.03 in1016.9 mb 0.00 in0.0 mm 0.00 in0.0 mm 0.00 in0.0 mm
02:26 AM 53.3°F11.8°C 50.2°F10.1°C 89% Calm Calm -- 30.03 in1016.9 mb 0.00 in0.0 mm 0.00 in0.0 mm 0.00 in0.0 mm
02:28 AM 53.3°F11.8°C 50.2°F10.1°C 89% Calm Calm 1.0 mph1.6 kmh 30.03 in1016.9 mb 0.00 in0.0 mm 0.00 in0.0 mm 0.00 in0.0 mm
02:30 AM 53.3°F11.8°C 50.2°F10.1°C 89% Calm Calm -- 30.03 in1016.9 mb 0.01 in0.3 mm 0.30 in7.6 mm 0.01 in0.3 mm
02:32 AM 53.3°F11.8°C 50.2°F10.1°C 89% Calm Calm -- 30.03 in1016.9 mb 0.01 in0.3 mm 0.00 in0.0 mm 0.01 in0.3 mm
02:34 AM 53.3°F11.8°C 50.2°F10.1°C 89% Calm Calm -- 30.03 in1016.9 mb 0.01 in0.3 mm 0.00 in0.0 mm 0.01 in0.3 mm
02:36 AM 53.3°F11.8°C 50.2°F10.1°C 89% Calm Calm -- 30.03 in1016.9 mb 0.01 in0.3 mm 0.00 in0.0 mm 0.01 in0.3 mm
02:38 AM 53.4°F11.9°C 50.3°F10.2°C 89% Calm Calm -- 30.03 in1016.9 mb 0.01 in0.3 mm 0.00 in0.0 mm 0.01 in0.3 mm
02:40 AM 53.4°F11.9°C 50.3°F10.2°C 89% Calm Calm -- 30.03 in1016.9 mb 0.01 in0.3 mm 0.00 in0.0 mm 0.01 in0.3 mm
02:42 AM 53.4°F11.9°C 50.3°F10.2°C 89% Calm Calm -- 30.03 in1016.9 mb 0.01 in0.3 mm 0.00 in0.0 mm 0.01 in0.3 mm
02:44 AM 53.5°F11.9°C 50.3°F10.2°C 89% Calm Calm -- 30.03 in1016.9 mb 0.01 in0.3 mm 0.00 in0.0 mm 0.01 in0.3 mm
02:46 AM 53.4°F11.9°C 50.3°F10.2°C 89% Calm Calm -- 30.03 in1016.9 mb 0.01 in0.3 mm 0.00 in0.0 mm 0.01 in0.3 mm
02:48 AM 53.5°F11.9°C 50.3°F10.2°C 89% Calm Calm -- 30.03 in1016.9 mb 0.01 in0.3 mm 0.00 in0.0 mm 0.01 in0.3 mm
02:50 AM 53.5°F11.9°C 50.6°F10.3°C 90% Calm Calm -- 30.03 in1016.9 mb 0.01 in0.3 mm 0.00 in0.0 mm 0.01 in0.3 mm
02:52 AM 53.5°F11.9°C 50.6°F10.3°C 90% 2.0 mph NE3.2 kmh NE 2.0 mph3.2 kmh 30.03 in1016.9 mb 0.01 in0.3 mm 0.00 in0.0 mm 0.01 in0.3 mm
02:54 AM 53.5°F11.9°C 50.6°F10.3°C 90% Calm Calm -- 30.03 in1016.9 mb 0.01 in0.3 mm 0.00 in0.0 mm 0.01 in0.3 mm
02:56 AM 53.5°F11.9°C 50.6°F10.3°C 90% Calm Calm 1.0 mph1.6 kmh 30.03 in1016.9 mb 0.01 in0.3 mm 0.00 in0.0 mm 0.01 in0.3 mm
02:58 AM 53.4°F11.9°C 50.6°F10.3°C 90% Calm Calm -- 30.03 in1016.9 mb 0.01 in0.3 mm 0.00 in0.0 mm 0.01 in0.3 mm
03:00 AM 53.4°F11.9°C 50.6°F10.3°C 90% Calm Calm -- 30.03 in1016.9 mb 0.01 in0.3 mm 0.00 in0.0 mm 0.01 in0.3 mm
03:02 AM 53.4°F11.9°C 50.6°F10.3°C 90% Calm Calm -- 30.03 in1016.9 mb 0.01 in0.3 mm 0.00 in0.0 mm 0.01 in0.3 mm
03:04 AM 53.4°F11.9°C 50.6°F10.3°C 90% Calm Calm -- 30.03 in1016.9 mb 0.01 in0.3 mm 0.00 in0.0 mm 0.01 in0.3 mm
03:06 AM 53.4°F11.9°C 50.6°F10.3°C 90% Calm Calm -- 30.03 in1016.9 mb 0.02 in0.5 mm 0.30 in7.6 mm 0.02 in0.5 mm
03:08 AM 53.4°F11.9°C 50.6°F10.3°C 90% Calm Calm 1.0 mph1.6 kmh 30.03 in1016.9 mb 0.02 in0.5 mm 0.00 in0.0 mm 0.02 in0.5 mm
03:10 AM 53.3°F11.8°C 50.7°F10.4°C 91% Calm Calm -- 30.03 in1016.9 mb 0.02 in0.5 mm 0.00 in0.0 mm 0.02 in0.5 mm
03:12 AM 53.3°F11.8°C 50.7°F10.4°C 91% 2.0 mph NE3.2 kmh NE 2.0 mph3.2 kmh 30.03 in1016.9 mb 0.02 in0.5 mm 0.00 in0.0 mm 0.02 in0.5 mm
03:14 AM 53.3°F11.8°C 50.7°F10.4°C 91% 1.0 mph NE1.6 kmh NE 2.0 mph3.2 kmh 30.02 in1016.6 mb 0.02 in0.5 mm 0.00 in0.0 mm 0.02 in0.5 mm
03:16 AM 53.3°F11.8°C 50.7°F10.4°C 91% Calm Calm -- 30.02 in1016.6 mb 0.02 in0.5 mm 0.00 in0.0 mm 0.02 in0.5 mm
03:18 AM 53.2°F11.8°C 50.4°F10.2°C 90% Calm Calm -- 30.02 in1016.6 mb 0.02 in0.5 mm 0.00 in0.0 mm 0.02 in0.5 mm
03:20 AM 53.2°F11.8°C 50.4°F10.2°C 90% Calm Calm -- 30.02 in1016.6 mb 0.02 in0.5 mm 0.00 in0.0 mm 0.02 in0.5 mm
03:22 AM 53.1°F11.7°C 50.3°F10.2°C 90% Calm Calm -- 30.02 in1016.6 mb 0.02 in0.5 mm 0.00 in0.0 mm 0.02 in0.5 mm
03:24 AM 53.1°F11.7°C 50.6°F10.3°C 91% Calm Calm -- 30.02 in1016.6 mb 0.02 in0.5 mm 0.00 in0.0 mm 0.02 in0.5 mm
03:26 AM 53.1°F11.7°C 50.6°F10.3°C 91% Calm Calm -- 30.02 in1016.6 mb 0.02 in0.5 mm 0.00 in0.0 mm 0.02 in0.5 mm
03:28 AM 53.0°F11.7°C 50.5°F10.3°C 91% Calm Calm -- 30.02 in1016.6 mb 0.02 in0.5 mm 0.00 in0.0 mm 0.02 in0.5 mm
03:30 AM 53.0°F11.7°C 50.5°F10.3°C 91% Calm Calm 1.0 mph1.6 kmh 30.02 in1016.6 mb 0.02 in0.5 mm 0.00 in0.0 mm 0.02 in0.5 mm
03:32 AM 53.0°F11.7°C 50.5°F10.3°C 91% Calm Calm -- 30.02 in1016.6 mb 0.01 in0.3 mm 0.00 in0.0 mm 0.02 in0.5 mm
03:34 AM 53.0°F11.7°C 50.5°F10.3°C 91% Calm Calm -- 30.02 in1016.6 mb 0.01 in0.3 mm 0.00 in0.0 mm 0.02 in0.5 mm
03:36 AM 52.9°F11.6°C 50.4°F10.2°C 91% Calm Calm -- 30.02 in1016.6 mb 0.02 in0.5 mm 0.30 in7.6 mm 0.03 in0.8 mm
03:38 AM 52.9°F11.6°C 50.4°F10.2°C 91% Calm Calm -- 30.02 in1016.6 mb 0.02 in0.5 mm 0.00 in0.0 mm 0.03 in0.8 mm
03:40 AM 52.8°F11.6°C 50.3°F10.2°C 91% Calm Calm -- 30.02 in1016.6 mb 0.02 in0.5 mm 0.00 in0.0 mm 0.03 in0.8 mm
03:42 AM 52.8°F11.6°C 50.3°F10.2°C 91% Calm Calm 1.0 mph1.6 kmh 30.02 in1016.6 mb 0.02 in0.5 mm 0.00 in0.0 mm 0.03 in0.8 mm
03:44 AM 52.8°F11.6°C 50.3°F10.2°C 91% Calm Calm -- 30.02 in1016.6 mb 0.02 in0.5 mm 0.00 in0.0 mm 0.03 in0.8 mm
03:46 AM 52.8°F11.6°C 50.3°F10.2°C 91% Calm Calm -- 30.02 in1016.6 mb 0.02 in0.5 mm 0.00 in0.0 mm 0.03 in0.8 mm
03:48 AM 52.8°F11.6°C 50.3°F10.2°C 91% Calm Calm -- 30.02 in1016.6 mb 0.02 in0.5 mm 0.00 in0.0 mm 0.03 in0.8 mm
03:50 AM 52.7°F11.5°C 50.2°F10.1°C 91% Calm Calm -- 30.02 in1016.6 mb 0.02 in0.5 mm 0.00 in0.0 mm 0.03 in0.8 mm
03:52 AM 52.7°F11.5°C 50.2°F10.1°C 91% Calm Calm -- 30.02 in1016.6 mb 0.02 in0.5 mm 0.00 in0.0 mm 0.03 in0.8 mm
03:54 AM 52.7°F11.5°C 50.2°F10.1°C 91% Calm Calm -- 30.02 in1016.6 mb 0.02 in0.5 mm 0.00 in0.0 mm 0.03 in0.8 mm
03:56 AM 52.7°F11.5°C 50.2°F10.1°C 91% Calm Calm -- 30.02 in1016.6 mb 0.02 in0.5 mm 0.00 in0.0 mm 0.03 in0.8 mm
03:58 AM 52.7°F11.5°C 50.5°F10.3°C 92% Calm Calm -- 30.02 in1016.6 mb 0.02 in0.5 mm 0.00 in0.0 mm 0.03 in0.8 mm
04:00 AM 52.7°F11.5°C 50.5°F10.3°C 92% Calm Calm -- 30.02 in1016.6 mb 0.02 in0.5 mm 0.00 in0.0 mm 0.03 in0.8 mm
04:02 AM 52.7°F11.5°C 50.5°F10.3°C 92% Calm Calm -- 30.02 in1016.6 mb 0.02 in0.5 mm 0.00 in0.0 mm 0.03 in0.8 mm
04:04 AM 52.7°F11.5°C 50.5°F10.3°C 92% Calm Calm -- 30.02 in1016.6 mb 0.02 in0.5 mm 0.00 in0.0 mm 0.03 in0.8 mm
04:06 AM 52.8°F11.6°C 50.5°F10.3°C 92% Calm Calm -- 30.02 in1016.6 mb 0.02 in0.5 mm 0.00 in0.0 mm 0.03 in0.8 mm
04:08 AM 52.7°F11.5°C 50.5°F10.3°C 92% Calm Calm -- 30.02 in1016.6 mb 0.01 in0.3 mm 0.00 in0.0 mm 0.03 in0.8 mm
04:10 AM 52.7°F11.5°C 50.5°F10.3°C 92% Calm Calm -- 30.02 in1016.6 mb 0.01 in0.3 mm 0.00 in0.0 mm 0.03 in0.8 mm
04:12 AM 52.7°F11.5°C 50.5°F10.3°C 92% Calm Calm -- 30.02 in1016.6 mb 0.01 in0.3 mm 0.00 in0.0 mm 0.03 in0.8 mm
04:14 AM 52.6°F11.4°C 50.4°F10.2°C 92% Calm Calm -- 30.02 in1016.6 mb 0.01 in0.3 mm 0.00 in0.0 mm 0.03 in0.8 mm
04:16 AM 52.6°F11.4°C 50.4°F10.2°C 92% Calm Calm -- 30.02 in1016.6 mb 0.01 in0.3 mm 0.00 in0.0 mm 0.03 in0.8 mm
04:18 AM 52.6°F11.4°C 50.4°F10.2°C 92% Calm Calm -- 30.02 in1016.6 mb 0.01 in0.3 mm 0.00 in0.0 mm 0.03 in0.8 mm
04:20 AM 52.6°F11.4°C 50.4°F10.2°C 92% Calm Calm -- 30.03 in1016.9 mb 0.01 in0.3 mm 0.00 in0.0 mm 0.03 in0.8 mm
04:22 AM 52.5°F11.4°C 50.3°F10.2°C 92% Calm Calm -- 30.02 in1016.6 mb 0.01 in0.3 mm 0.00 in0.0 mm 0.03 in0.8 mm
04:24 AM 52.5°F11.4°C 50.3°F10.2°C 92% Calm Calm -- 30.02 in1016.6 mb 0.01 in0.3 mm 0.00 in0.0 mm 0.03 in0.8 mm
04:26 AM 52.5°F11.4°C 50.3°F10.2°C 92% Calm Calm -- 30.02 in1016.6 mb 0.01 in0.3 mm 0.00 in0.0 mm 0.03 in0.8 mm
04:28 AM 52.5°F11.4°C 50.3°F10.2°C 92% Calm Calm -- 30.02 in1016.6 mb 0.01 in0.3 mm 0.00 in0.0 mm 0.03 in0.8 mm
04:30 AM 52.4°F11.3°C 50.2°F10.1°C 92% Calm Calm -- 30.03 in1016.9 mb 0.01 in0.3 mm 0.00 in0.0 mm 0.03 in0.8 mm
04:32 AM 52.4°F11.3°C 50.2°F10.1°C 92% Calm Calm -- 30.03 in1016.9 mb 0.01 in0.3 mm 0.00 in0.0 mm 0.03 in0.8 mm
04:34 AM 52.4°F11.3°C 50.2°F10.1°C 92% Calm Calm -- 30.02 in1016.6 mb 0.01 in0.3 mm 0.00 in0.0 mm 0.03 in0.8 mm
04:36 AM 52.3°F11.3°C 50.1°F10.1°C 92% Calm Calm -- 30.03 in1016.9 mb 0.00 in0.0 mm 0.00 in0.0 mm 0.03 in0.8 mm
04:38 AM 52.3°F11.3°C 50.1°F10.1°C 92% Calm Calm -- 30.03 in1016.9 mb 0.00 in0.0 mm 0.00 in0.0 mm 0.03 in0.8 mm
04:40 AM 52.3°F11.3°C 50.1°F10.1°C 92% Calm Calm -- 30.03 in1016.9 mb 0.00 in0.0 mm 0.00 in0.0 mm 0.03 in0.8 mm
04:42 AM 52.2°F11.2°C 50.0°F10.0°C 92% Calm Calm -- 30.03 in1016.9 mb 0.00 in0.0 mm 0.00 in0.0 mm 0.03 in0.8 mm
04:44 AM 52.2°F11.2°C 50.0°F10.0°C 92% Calm Calm -- 30.03 in1016.9 mb 0.00 in0.0 mm 0.00 in0.0 mm 0.03 in0.8 mm
04:46 AM 52.2°F11.2°C 50.0°F10.0°C 92% Calm Calm -- 30.03 in1016.9 mb 0.00 in0.0 mm 0.00 in0.0 mm 0.03 in0.8 mm
04:48 AM 52.1°F11.2°C 49.9°F9.9°C 92% Calm Calm -- 30.03 in1016.9 mb 0.00 in0.0 mm 0.00 in0.0 mm 0.03 in0.8 mm
04:50 AM 52.1°F11.2°C 49.9°F9.9°C 92% Calm Calm -- 30.03 in1016.9 mb 0.00 in0.0 mm 0.00 in0.0 mm 0.03 in0.8 mm
04:52 AM 52.1°F11.2°C 49.9°F9.9°C 92% Calm Calm -- 30.03 in1016.9 mb 0.00 in0.0 mm 0.00 in0.0 mm 0.03 in0.8 mm
04:54 AM 52.0°F11.1°C 49.8°F9.9°C 92% Calm Calm -- 30.03 in1016.9 mb 0.00 in0.0 mm 0.00 in0.0 mm 0.03 in0.8 mm
04:56 AM 52.0°F11.1°C 49.8°F9.9°C 92% Calm Calm 1.0 mph1.6 kmh 30.03 in1016.9 mb 0.00 in0.0 mm 0.00 in0.0 mm 0.03 in0.8 mm
04:58 AM 51.9°F11.1°C 49.7°F9.8°C 92% Calm Calm -- 30.03 in1016.9 mb 0.00 in0.0 mm 0.00 in0.0 mm 0.03 in0.8 mm
05:00 AM 51.9°F11.1°C 49.7°F9.8°C 92% Calm Calm -- 30.03 in1016.9 mb 0.00 in0.0 mm 0.00 in0.0 mm 0.03 in0.8 mm
05:02 AM 51.9°F11.1°C 49.7°F9.8°C 92% Calm Calm -- 30.03 in1016.9 mb 0.00 in0.0 mm 0.00 in0.0 mm 0.03 in0.8 mm
05:04 AM 51.9°F11.1°C 49.7°F9.8°C 92% Calm Calm -- 30.03 in1016.9 mb 0.00 in0.0 mm 0.00 in0.0 mm 0.03 in0.8 mm
05:06 AM 51.9°F11.1°C 49.7°F9.8°C 92% Calm Calm -- 30.03 in1016.9 mb 0.00 in0.0 mm 0.00 in0.0 mm 0.03 in0.8 mm
05:08 AM 51.9°F11.1°C 49.9°F9.9°C 93% Calm Calm -- 30.03 in1016.9 mb 0.00 in0.0 mm 0.00 in0.0 mm 0.03 in0.8 mm
05:10 AM 51.9°F11.1°C 49.9°F9.9°C 93% Calm Calm -- 30.03 in1016.9 mb 0.00 in0.0 mm 0.00 in0.0 mm 0.03 in0.8 mm
05:12 AM 51.8°F11.0°C 49.8°F9.9°C 93% Calm Calm -- 30.03 in1016.9 mb 0.00 in0.0 mm 0.00 in0.0 mm 0.03 in0.8 mm
05:14 AM 51.9°F11.1°C 49.9°F9.9°C 93% Calm Calm -- 30.03 in1016.9 mb 0.00 in0.0 mm 0.00 in0.0 mm 0.03 in0.8 mm
05:16 AM 51.8°F11.0°C 49.8°F9.9°C 93% Calm Calm -- 30.03 in1016.9 mb 0.00 in0.0 mm 0.00 in0.0 mm 0.03 in0.8 mm
05:18 AM 51.8°F11.0°C 49.8°F9.9°C 93% Calm Calm -- 30.03 in1016.9 mb 0.00 in0.0 mm 0.00 in0.0 mm 0.03 in0.8 mm
05:20 AM 51.9°F11.1°C 49.9°F9.9°C 93% Calm Calm -- 30.03 in1016.9 mb 0.00 in0.0 mm 0.00 in0.0 mm 0.03 in0.8 mm
05:22 AM 51.9°F11.1°C 49.9°F9.9°C 93% Calm Calm -- 30.03 in1016.9 mb 0.00 in0.0 mm 0.00 in0.0 mm 0.03 in0.8 mm
05:24 AM 51.9°F11.1°C 49.9°F9.9°C 93% Calm Calm -- 30.03 in1016.9 mb 0.00 in0.0 mm 0.00 in0.0 mm 0.03 in0.8 mm
05:26 AM 51.9°F11.1°C 49.9°F9.9°C 93% Calm Calm -- 30.03 in1016.9 mb 0.00 in0.0 mm 0.00 in0.0 mm 0.03 in0.8 mm
05:28 AM 52.0°F11.1°C 50.0°F10.0°C 93% Calm Calm -- 30.03 in1016.9 mb 0.00 in0.0 mm 0.00 in0.0 mm 0.03 in0.8 mm
05:30 AM 52.0°F11.1°C 50.0°F10.0°C 93% Calm Calm 1.0 mph1.6 kmh 30.03 in1016.9 mb 0.00 in0.0 mm 0.00 in0.0 mm 0.03 in0.8 mm
05:32 AM 52.0°F11.1°C 50.0°F10.0°C 93% Calm Calm -- 30.03 in1016.9 mb 0.00 in0.0 mm 0.00 in0.0 mm 0.03 in0.8 mm
05:34 AM 52.0°F11.1°C 50.0°F10.0°C 93% Calm Calm -- 30.03 in1016.9 mb 0.00 in0.0 mm 0.00 in0.0 mm 0.03 in0.8 mm
05:36 AM 52.1°F11.2°C 50.1°F10.1°C 93% Calm Calm -- 30.03 in1016.9 mb 0.00 in0.0 mm 0.00 in0.0 mm 0.03 in0.8 mm
05:38 AM 52.1°F11.2°C 50.1°F10.1°C 93% Calm Calm 1.0 mph1.6 kmh 30.03 in1016.9 mb 0.00 in0.0 mm 0.00 in0.0 mm 0.03 in0.8 mm
05:40 AM 52.1°F11.2°C 50.1°F10.1°C 93% Calm Calm -- 30.03 in1016.9 mb 0.00 in0.0 mm 0.00 in0.0 mm 0.03 in0.8 mm
05:42 AM 52.1°F11.2°C 50.1°F10.1°C 93% Calm Calm -- 30.03 in1016.9 mb 0.00 in0.0 mm 0.00 in0.0 mm 0.03 in0.8 mm
05:44 AM 52.1°F11.2°C 50.1°F10.1°C 93% Calm Calm 3.0 mph4.8 kmh 30.03 in1016.9 mb 0.00 in0.0 mm 0.00 in0.0 mm 0.03 in0.8 mm
05:46 AM 52.0°F11.1°C 50.0°F10.0°C 93% 1.0 mph NW1.6 kmh NW 4.0 mph6.4 kmh 30.04 in1017.3 mb 0.00 in0.0 mm 0.00 in0.0 mm 0.03 in0.8 mm
05:48 AM 52.0°F11.1°C 50.0°F10.0°C 93% Calm Calm 1.0 mph1.6 kmh 30.04 in1017.3 mb 0.00 in0.0 mm 0.00 in0.0 mm 0.03 in0.8 mm
05:50 AM 52.0°F11.1°C 50.0°F10.0°C 93% 1.0 mph NW1.6 kmh NW 1.0 mph1.6 kmh 30.04 in1017.3 mb 0.00 in0.0 mm 0.00 in0.0 mm 0.03 in0.8 mm
05:52 AM 52.0°F11.1°C 50.0°F10.0°C 93% Calm Calm -- 30.04 in1017.3 mb 0.00 in0.0 mm 0.00 in0.0 mm 0.03 in0.8 mm
05:54 AM 52.0°F11.1°C 50.0°F10.0°C 93% Calm Calm -- 30.04 in1017.3 mb 0.00 in0.0 mm 0.00 in0.0 mm 0.03 in0.8 mm
05:56 AM 52.0°F11.1°C 50.0°F10.0°C 93% Calm Calm 6.0 mph9.7 kmh 30.04 in1017.3 mb 0.00 in0.0 mm 0.00 in0.0 mm 0.03 in0.8 mm
05:58 AM 52.0°F11.1°C 50.0°F10.0°C 93% Calm Calm 2.0 mph3.2 kmh 30.04 in1017.3 mb 0.00 in0.0 mm 0.00 in0.0 mm 0.03 in0.8 mm
06:04 AM 51.9°F11.1°C 49.9°F9.9°C 93% 3.0 mph NNW4.8 kmh NNW 3.0 mph4.8 kmh 30.04 in1017.3 mb 0.00 in0.0 mm 0.00 in0.0 mm 0.03 in0.8 mm
06:06 AM 51.9°F11.1°C 49.9°F9.9°C 93% Calm Calm 2.0 mph3.2 kmh 30.04 in1017.3 mb 0.00 in0.0 mm 0.00 in0.0 mm 0.03 in0.8 mm
06:08 AM 51.9°F11.1°C 49.9°F9.9°C 93% 1.0 mph N1.6 kmh N 2.0 mph3.2 kmh 30.04 in1017.3 mb 0.00 in0.0 mm 0.00 in0.0 mm 0.03 in0.8 mm
06:10 AM 51.8°F11.0°C 49.8°F9.9°C 93% 1.0 mph N1.6 kmh N 1.0 mph1.6 kmh 30.04 in1017.3 mb 0.00 in0.0 mm 0.00 in0.0 mm 0.03 in0.8 mm
06:12 AM 51.8°F11.0°C 49.8°F9.9°C 93% Calm Calm 5.0 mph8.0 kmh 30.04 in1017.3 mb 0.00 in0.0 mm 0.00 in0.0 mm 0.03 in0.8 mm
06:14 AM 51.7°F10.9°C 49.8°F9.9°C 93% Calm Calm -- 30.04 in1017.3 mb 0.00 in0.0 mm 0.00 in0.0 mm 0.03 in0.8 mm
06:16 AM 51.7°F10.9°C 49.8°F9.9°C 93% Calm Calm -- 30.04 in1017.3 mb 0.00 in0.0 mm 0.00 in0.0 mm 0.03 in0.8 mm
06:18 AM 51.7°F10.9°C 49.8°F9.9°C 93% 2.0 mph NE3.2 kmh NE 2.0 mph3.2 kmh 30.04 in1017.3 mb 0.00 in0.0 mm 0.00 in0.0 mm 0.03 in0.8 mm
06:20 AM 51.6°F10.9°C 49.7°F9.8°C 93% Calm Calm -- 30.04 in1017.3 mb 0.00 in0.0 mm 0.00 in0.0 mm 0.03 in0.8 mm
06:22 AM 51.5°F10.8°C 49.6°F9.8°C 93% Calm Calm -- 30.04 in1017.3 mb 0.00 in0.0 mm 0.00 in0.0 mm 0.03 in0.8 mm
06:24 AM 51.5°F10.8°C 49.6°F9.8°C 93% Calm Calm -- 30.04 in1017.3 mb 0.00 in0.0 mm 0.00 in0.0 mm 0.03 in0.8 mm
06:26 AM 51.5°F10.8°C 49.6°F9.8°C 93% Calm Calm -- 30.04 in1017.3 mb 0.00 in0.0 mm 0.00 in0.0 mm 0.03 in0.8 mm
06:28 AM 51.5°F10.8°C 49.6°F9.8°C 93% Calm Calm 2.0 mph3.2 kmh 30.04 in1017.3 mb 0.00 in0.0 mm 0.00 in0.0 mm 0.03 in0.8 mm
06:30 AM 51.5°F10.8°C 49.6°F9.8°C 93% Calm Calm 2.0 mph3.2 kmh 30.04 in1017.3 mb 0.00 in0.0 mm 0.00 in0.0 mm 0.03 in0.8 mm
06:32 AM 51.5°F10.8°C 49.6°F9.8°C 93% 1.0 mph NNE1.6 kmh NNE 3.0 mph4.8 kmh 30.05 in1017.6 mb 0.00 in0.0 mm 0.00 in0.0 mm 0.03 in0.8 mm
06:34 AM 51.4°F10.8°C 49.5°F9.7°C 93% Calm Calm 2.0 mph3.2 kmh 30.05 in1017.6 mb 0.00 in0.0 mm 0.00 in0.0 mm 0.03 in0.8 mm
06:36 AM 51.4°F10.8°C 49.5°F9.7°C 93% Calm Calm 2.0 mph3.2 kmh 30.05 in1017.6 mb 0.00 in0.0 mm 0.00 in0.0 mm 0.03 in0.8 mm
06:38 AM 51.4°F10.8°C 49.5°F9.7°C 93% Calm Calm -- 30.05 in1017.6 mb 0.00 in0.0 mm 0.00 in0.0 mm 0.03 in0.8 mm
06:40 AM 51.4°F10.8°C 49.5°F9.7°C 93% 4.0 mph NNW6.4 kmh NNW 4.0 mph6.4 kmh 30.05 in1017.6 mb 0.00 in0.0 mm 0.00 in0.0 mm 0.03 in0.8 mm
06:42 AM 51.4°F10.8°C 49.5°F9.7°C 93% Calm Calm -- 30.05 in1017.6 mb 0.00 in0.0 mm 0.00 in0.0 mm 0.03 in0.8 mm
06:44 AM 51.4°F10.8°C 49.5°F9.7°C 93% Calm Calm -- 30.05 in1017.6 mb 0.00 in0.0 mm 0.00 in0.0 mm 0.03 in0.8 mm
06:46 AM 51.4°F10.8°C 49.5°F9.7°C 93% Calm Calm -- 30.05 in1017.6 mb 0.00 in0.0 mm 0.00 in0.0 mm 0.03 in0.8 mm
06:48 AM 51.4°F10.8°C 49.5°F9.7°C 93% Calm Calm -- 30.05 in1017.6 mb 0.00 in0.0 mm 0.00 in0.0 mm 0.03 in0.8 mm
06:50 AM 51.4°F10.8°C 49.5°F9.7°C 93% 2.0 mph NNW3.2 kmh NNW 2.0 mph3.2 kmh 30.05 in1017.6 mb 0.00 in0.0 mm 0.00 in0.0 mm 0.03 in0.8 mm
06:52 AM 51.4°F10.8°C 49.5°F9.7°C 93% Calm Calm -- 30.05 in1017.6 mb 0.00 in0.0 mm 0.00 in0.0 mm 0.03 in0.8 mm
06:54 AM 51.3°F10.7°C 49.4°F9.7°C 93% Calm Calm 1.0 mph1.6 kmh 30.05 in1017.6 mb 0.00 in0.0 mm 0.00 in0.0 mm 0.03 in0.8 mm
06:56 AM 51.4°F10.8°C 49.5°F9.7°C 93% Calm Calm 1.0 mph1.6 kmh 30.05 in1017.6 mb 0.00 in0.0 mm 0.00 in0.0 mm 0.03 in0.8 mm
06:58 AM 51.4°F10.8°C 49.5°F9.7°C 93% Calm Calm -- 30.05 in1017.6 mb 0.00 in0.0 mm 0.00 in0.0 mm 0.03 in0.8 mm
07:00 AM 51.4°F10.8°C 49.5°F9.7°C 93% 2.0 mph NNW3.2 kmh NNW 2.0 mph3.2 kmh 30.05 in1017.6 mb 0.00 in0.0 mm 0.00 in0.0 mm 0.03 in0.8 mm
07:02 AM 51.4°F10.8°C 49.5°F9.7°C 93% Calm Calm 4.0 mph6.4 kmh 30.05 in1017.6 mb 0.00 in0.0 mm 0.00 in0.0 mm 0.03 in0.8 mm
07:04 AM 51.4°F10.8°C 49.5°F9.7°C 93% 2.0 mph N3.2 kmh N 4.0 mph6.4 kmh 30.05 in1017.6 mb 0.00 in0.0 mm 0.00 in0.0 mm 0.03 in0.8 mm
07:06 AM 51.4°F10.8°C 49.5°F9.7°C 93% 1.0 mph N1.6 kmh N 1.0 mph1.6 kmh 30.05 in1017.6 mb 0.00 in0.0 mm 0.00 in0.0 mm 0.03 in0.8 mm
07:08 AM 51.4°F10.8°C 49.5°F9.7°C 93% Calm Calm 2.0 mph3.2 kmh 30.05 in1017.6 mb 0.00 in0.0 mm 0.00 in0.0 mm 0.03 in0.8 mm
07:10 AM 51.4°F10.8°C 49.5°F9.7°C 93% Calm Calm 1.0 mph1.6 kmh 30.05 in1017.6 mb 0.00 in0.0 mm 0.00 in0.0 mm 0.03 in0.8 mm
07:12 AM 51.4°F10.8°C 49.5°F9.7°C 93% 3.0 mph NNW4.8 kmh NNW 6.0 mph9.7 kmh 30.05 in1017.6 mb 0.00 in0.0 mm 0.00 in0.0 mm 0.03 in0.8 mm
07:14 AM 51.4°F10.8°C 49.5°F9.7°C 93% Calm Calm -- 30.05 in1017.6 mb 0.00 in0.0 mm 0.00 in0.0 mm 0.03 in0.8 mm
07:16 AM 51.4°F10.8°C 49.5°F9.7°C 93% Calm Calm -- 30.05 in1017.6 mb 0.00 in0.0 mm 0.00 in0.0 mm 0.03 in0.8 mm
07:18 AM 51.4°F10.8°C 49.5°F9.7°C 93% Calm Calm -- 30.05 in1017.6 mb 0.00 in0.0 mm 0.00 in0.0 mm 0.03 in0.8 mm
07:20 AM 51.4°F10.8°C 49.5°F9.7°C 93% Calm Calm 4.0 mph6.4 kmh 30.05 in1017.6 mb 0.00 in0.0 mm 0.00 in0.0 mm 0.03 in0.8 mm
07:22 AM 51.5°F10.8°C 49.8°F9.9°C 94% 1.0 mph NNW1.6 kmh NNW 5.0 mph8.0 kmh 30.06 in1017.9 mb 0.00 in0.0 mm 0.00 in0.0 mm 0.03 in0.8 mm
07:24 AM 51.5°F10.8°C 49.8°F9.9°C 94% 2.0 mph N3.2 kmh N 5.0 mph8.0 kmh 30.06 in1017.9 mb 0.00 in0.0 mm 0.00 in0.0 mm 0.03 in0.8 mm
07:26 AM 51.5°F10.8°C 49.8°F9.9°C 94% Calm Calm 1.0 mph1.6 kmh 30.06 in1017.9 mb 0.00 in0.0 mm 0.00 in0.0 mm 0.03 in0.8 mm
07:28 AM 51.4°F10.8°C 49.5°F9.7°C 93% Calm Calm -- 30.06 in1017.9 mb 0.00 in0.0 mm 0.00 in0.0 mm 0.03 in0.8 mm
07:30 AM 51.5°F10.8°C 49.6°F9.8°C 93% 1.0 mph N1.6 kmh N 2.0 mph3.2 kmh 30.06 in1017.9 mb 0.00 in0.0 mm 0.00 in0.0 mm 0.03 in0.8 mm
07:32 AM 51.5°F10.8°C 49.6°F9.8°C 93% 1.0 mph N1.6 kmh N 1.0 mph1.6 kmh 30.06 in1017.9 mb 0.00 in0.0 mm 0.00 in0.0 mm 0.03 in0.8 mm
07:34 AM 51.5°F10.8°C 49.6°F9.8°C 93% 3.0 mph NNW4.8 kmh NNW 4.0 mph6.4 kmh 30.06 in1017.9 mb 0.00 in0.0 mm 0.00 in0.0 mm 0.03 in0.8 mm
07:36 AM 51.5°F10.8°C 49.6°F9.8°C 93% Calm Calm -- 30.06 in1017.9 mb 0.00 in0.0 mm 0.00 in0.0 mm 0.03 in0.8 mm
07:38 AM 51.5°F10.8°C 49.6°F9.8°C 93% Calm Calm 1.0 mph1.6 kmh 30.06 in1017.9 mb 0.00 in0.0 mm 0.00 in0.0 mm 0.03 in0.8 mm
07:40 AM 51.5°F10.8°C 49.6°F9.8°C 93% Calm Calm 1.0 mph1.6 kmh 30.06 in1017.9 mb 0.00 in0.0 mm 0.00 in0.0 mm 0.03 in0.8 mm
07:42 AM 51.5°F10.8°C 49.6°F9.8°C 93% Calm Calm -- 30.06 in1017.9 mb 0.00 in0.0 mm 0.00 in0.0 mm 0.03 in0.8 mm
07:44 AM 51.5°F10.8°C 49.6°F9.8°C 93% 2.0 mph NNE3.2 kmh NNE 5.0 mph8.0 kmh 30.06 in1017.9 mb 0.00 in0.0 mm 0.00 in0.0 mm 0.03 in0.8 mm
07:46 AM 51.6°F10.9°C 49.7°F9.8°C 93% Calm Calm -- 30.07 in1018.3 mb 0.00 in0.0 mm 0.00 in0.0 mm 0.03 in0.8 mm
07:48 AM 51.7°F10.9°C 50.0°F10.0°C 94% 2.0 mph N3.2 kmh N 2.0 mph3.2 kmh 30.06 in1017.9 mb 0.00 in0.0 mm 0.00 in0.0 mm 0.03 in0.8 mm
07:50 AM 51.7°F10.9°C 50.0°F10.0°C 94% 3.0 mph NNW4.8 kmh NNW 3.0 mph4.8 kmh 30.07 in1018.3 mb 0.00 in0.0 mm 0.00 in0.0 mm 0.03 in0.8 mm
07:52 AM 51.7°F10.9°C 50.0°F10.0°C 94% 2.0 mph NNW3.2 kmh NNW 3.0 mph4.8 kmh 30.07 in1018.3 mb 0.00 in0.0 mm 0.00 in0.0 mm 0.03 in0.8 mm
07:54 AM 51.8°F11.0°C 50.1°F10.1°C 94% Calm Calm -- 30.07 in1018.3 mb 0.00 in0.0 mm 0.00 in0.0 mm 0.03 in0.8 mm
07:56 AM 51.8°F11.0°C 50.1°F10.1°C 94% 1.0 mph NW1.6 kmh NW 2.0 mph3.2 kmh 30.07 in1018.3 mb 0.00 in0.0 mm 0.00 in0.0 mm 0.03 in0.8 mm
07:58 AM 51.8°F11.0°C 49.8°F9.9°C 93% 2.0 mph NNW3.2 kmh NNW 2.0 mph3.2 kmh 30.07 in1018.3 mb 0.00 in0.0 mm 0.00 in0.0 mm 0.03 in0.8 mm
08:00 AM 51.8°F11.0°C 49.8°F9.9°C 93% Calm Calm -- 30.07 in1018.3 mb 0.00 in0.0 mm 0.00 in0.0 mm 0.03 in0.8 mm
08:02 AM 51.9°F11.1°C 49.9°F9.9°C 93% 2.0 mph NNE3.2 kmh NNE 2.0 mph3.2 kmh 30.07 in1018.3 mb 0.00 in0.0 mm 0.00 in0.0 mm 0.03 in0.8 mm
08:04 AM 51.9°F11.1°C 49.9°F9.9°C 93% 4.0 mph N6.4 kmh N 4.0 mph6.4 kmh 30.07 in1018.3 mb 0.00 in0.0 mm 0.00 in0.0 mm 0.03 in0.8 mm
08:06 AM 51.9°F11.1°C 49.9°F9.9°C 93% 4.0 mph NW6.4 kmh NW 4.0 mph6.4 kmh 30.07 in1018.3 mb 0.00 in0.0 mm 0.00 in0.0 mm 0.03 in0.8 mm
08:08 AM 52.0°F11.1°C 50.0°F10.0°C 93% 4.0 mph N6.4 kmh N 5.0 mph8.0 kmh 30.07 in1018.3 mb 0.00 in0.0 mm 0.00 in0.0 mm 0.03 in0.8 mm
08:10 AM 52.0°F11.1°C 50.3°F10.2°C 94% 2.0 mph NNW3.2 kmh NNW 2.0 mph3.2 kmh 30.07 in1018.3 mb 0.00 in0.0 mm 0.00 in0.0 mm 0.03 in0.8 mm
08:12 AM 52.1°F11.2°C 50.4°F10.2°C 94% Calm Calm -- 30.07 in1018.3 mb 0.00 in0.0 mm 0.00 in0.0 mm 0.03 in0.8 mm
08:14 AM 52.1°F11.2°C 50.1°F10.1°C 93% 1.0 mph NW1.6 kmh NW 7.0 mph11.3 kmh 30.07 in1018.3 mb 0.00 in0.0 mm 0.00 in0.0 mm 0.03 in0.8 mm
08:16 AM 52.1°F11.2°C 50.1°F10.1°C 93% Calm Calm -- 30.07 in1018.3 mb 0.00 in0.0 mm 0.00 in0.0 mm 0.03 in0.8 mm
08:18 AM 52.1°F11.2°C 50.4°F10.2°C 94% 3.0 mph NW4.8 kmh NW 3.0 mph4.8 kmh 30.07 in1018.3 mb 0.00 in0.0 mm 0.00 in0.0 mm 0.03 in0.8 mm
08:20 AM 52.1°F11.2°C 50.1°F10.1°C 93% Calm Calm -- 30.07 in1018.3 mb 0.00 in0.0 mm 0.00 in0.0 mm 0.03 in0.8 mm
08:22 AM 52.1°F11.2°C 50.1°F10.1°C 93% 2.0 mph NW3.2 kmh NW 2.0 mph3.2 kmh 30.07 in1018.3 mb 0.00 in0.0 mm 0.00 in0.0 mm 0.03 in0.8 mm
08:24 AM 52.1°F11.2°C 50.1°F10.1°C 93% 2.0 mph NW3.2 kmh NW 2.0 mph3.2 kmh 30.08 in1018.6 mb 0.00 in0.0 mm 0.00 in0.0 mm 0.03 in0.8 mm
08:26 AM 52.1°F11.2°C 50.1°F10.1°C 93% Calm Calm 3.0 mph4.8 kmh 30.08 in1018.6 mb 0.00 in0.0 mm 0.00 in0.0 mm 0.03 in0.8 mm
08:28 AM 52.1°F11.2°C 50.1°F10.1°C 93% 4.0 mph NNW6.4 kmh NNW 4.0 mph6.4 kmh 30.08 in1018.6 mb 0.00 in0.0 mm 0.00 in0.0 mm 0.03 in0.8 mm
08:30 AM 52.1°F11.2°C 50.1°F10.1°C 93% 3.0 mph ESE4.8 kmh ESE 3.0 mph4.8 kmh 30.07 in1018.3 mb 0.00 in0.0 mm 0.00 in0.0 mm 0.03 in0.8 mm
08:32 AM 52.1°F11.2°C 50.1°F10.1°C 93% Calm Calm -- 30.07 in1018.3 mb 0.00 in0.0 mm 0.00 in0.0 mm 0.03 in0.8 mm
08:34 AM 52.2°F11.2°C 50.2°F10.1°C 93% Calm Calm 1.0 mph1.6 kmh 30.07 in1018.3 mb 0.00 in0.0 mm 0.00 in0.0 mm 0.03 in0.8 mm
08:36 AM 52.3°F11.3°C 50.3°F10.2°C 93% 2.0 mph N3.2 kmh N 6.0 mph9.7 kmh 30.08 in1018.6 mb 0.00 in0.0 mm 0.00 in0.0 mm 0.03 in0.8 mm
08:38 AM 52.3°F11.3°C 50.3°F10.2°C 93% Calm Calm -- 30.08 in1018.6 mb 0.00 in0.0 mm 0.00 in0.0 mm 0.03 in0.8 mm
08:40 AM 52.3°F11.3°C 50.3°F10.2°C 93% Calm Calm 1.0 mph1.6 kmh 30.08 in1018.6 mb 0.00 in0.0 mm 0.00 in0.0 mm 0.03 in0.8 mm
08:42 AM 52.3°F11.3°C 50.3°F10.2°C 93% 1.0 mph ENE1.6 kmh ENE 2.0 mph3.2 kmh 30.08 in1018.6 mb 0.00 in0.0 mm 0.00 in0.0 mm 0.03 in0.8 mm
08:44 AM 52.3°F11.3°C 50.3°F10.2°C 93% Calm Calm 1.0 mph1.6 kmh 30.08 in1018.6 mb 0.00 in0.0 mm 0.00 in0.0 mm 0.03 in0.8 mm
08:46 AM 52.3°F11.3°C 50.3°F10.2°C 93% 1.0 mph E1.6 kmh E 1.0 mph1.6 kmh 30.08 in1018.6 mb 0.00 in0.0 mm 0.00 in0.0 mm 0.03 in0.8 mm
08:48 AM 52.3°F11.3°C 50.3°F10.2°C 93% Calm Calm -- 30.08 in1018.6 mb 0.00 in0.0 mm 0.00 in0.0 mm 0.03 in0.8 mm
08:50 AM 52.4°F11.3°C 50.4°F10.2°C 93% 2.0 mph E3.2 kmh E 5.0 mph8.0 kmh 30.08 in1018.6 mb 0.00 in0.0 mm 0.00 in0.0 mm 0.03 in0.8 mm
08:52 AM 52.4°F11.3°C 50.4°F10.2°C 93% 3.0 mph NE4.8 kmh NE 3.0 mph4.8 kmh 30.08 in1018.6 mb 0.00 in0.0 mm 0.00 in0.0 mm 0.03 in0.8 mm
08:54 AM 52.4°F11.3°C 50.2°F10.1°C 92% 2.0 mph NE3.2 kmh NE 3.0 mph4.8 kmh 30.09 in1019.0 mb 0.00 in0.0 mm 0.00 in0.0 mm 0.03 in0.8 mm
08:56 AM 52.4°F11.3°C 50.4°F10.2°C 93% 5.0 mph N8.0 kmh N 5.0 mph8.0 kmh 30.08 in1018.6 mb 0.00 in0.0 mm 0.00 in0.0 mm 0.03 in0.8 mm
08:58 AM 52.5°F11.4°C 50.5°F10.3°C 93% 3.0 mph NNE4.8 kmh NNE 3.0 mph4.8 kmh 30.09 in1019.0 mb 0.00 in0.0 mm 0.00 in0.0 mm 0.03 in0.8 mm
09:00 AM 52.5°F11.4°C 50.5°F10.3°C 93% 2.0 mph NNE3.2 kmh NNE 2.0 mph3.2 kmh 30.09 in1019.0 mb 0.00 in0.0 mm 0.00 in0.0 mm 0.03 in0.8 mm
09:02 AM 52.6°F11.4°C 50.6°F10.3°C 93% Calm Calm -- 30.09 in1019.0 mb 0.00 in0.0 mm 0.00 in0.0 mm 0.03 in0.8 mm
09:04 AM 52.6°F11.4°C 50.4°F10.2°C 92% Calm Calm 1.0 mph1.6 kmh 30.09 in1019.0 mb 0.00 in0.0 mm 0.00 in0.0 mm 0.03 in0.8 mm
09:06 AM 52.6°F11.4°C 50.4°F10.2°C 92% 3.0 mph NNE4.8 kmh NNE 4.0 mph6.4 kmh 30.09 in1019.0 mb 0.00 in0.0 mm 0.00 in0.0 mm 0.03 in0.8 mm
09:08 AM 52.6°F11.4°C 50.4°F10.2°C 92% Calm Calm 5.0 mph8.0 kmh 30.09 in1019.0 mb 0.00 in0.0 mm 0.00 in0.0 mm 0.03 in0.8 mm
09:10 AM 52.6°F11.4°C 50.4°F10.2°C 92% Calm Calm -- 30.09 in1019.0 mb 0.00 in0.0 mm 0.00 in0.0 mm 0.03 in0.8 mm
09:12 AM 52.7°F11.5°C 50.5°F10.3°C 92% Calm Calm 3.0 mph4.8 kmh 30.09 in1019.0 mb 0.00 in0.0 mm 0.00 in0.0 mm 0.03 in0.8 mm
09:14 AM 52.7°F11.5°C 50.5°F10.3°C 92% 4.0 mph N6.4 kmh N 4.0 mph6.4 kmh 30.09 in1019.0 mb 0.00 in0.0 mm 0.00 in0.0 mm 0.03 in0.8 mm
09:16 AM 52.7°F11.5°C 50.5°F10.3°C 92% 4.0 mph NE6.4 kmh NE 4.0 mph6.4 kmh 30.09 in1019.0 mb 0.00 in0.0 mm 0.00 in0.0 mm 0.03 in0.8 mm
09:18 AM 52.8°F11.6°C 50.5°F10.3°C 92% Calm Calm 4.0 mph6.4 kmh 30.09 in1019.0 mb 0.00 in0.0 mm 0.00 in0.0 mm 0.03 in0.8 mm
09:20 AM 52.8°F11.6°C 50.5°F10.3°C 92% Calm Calm 5.0 mph8.0 kmh 30.10 in1019.3 mb 0.00 in0.0 mm 0.00 in0.0 mm 0.03 in0.8 mm
09:22 AM 52.8°F11.6°C 50.5°F10.3°C 92% 2.0 mph NE3.2 kmh NE 2.0 mph3.2 kmh 30.10 in1019.3 mb 0.00 in0.0 mm 0.00 in0.0 mm 0.03 in0.8 mm
09:24 AM 52.8°F11.6°C 50.5°F10.3°C 92% 1.0 mph N1.6 kmh N 2.0 mph3.2 kmh 30.10 in1019.3 mb 0.00 in0.0 mm 0.00 in0.0 mm 0.03 in0.8 mm
09:26 AM 52.8°F11.6°C 50.5°F10.3°C 92% 3.0 mph NNW4.8 kmh NNW 3.0 mph4.8 kmh 30.10 in1019.3 mb 0.00 in0.0 mm 0.00 in0.0 mm 0.03 in0.8 mm
09:28 AM 52.9°F11.6°C 50.6°F10.3°C 92% 3.0 mph NNW4.8 kmh NNW 3.0 mph4.8 kmh 30.10 in1019.3 mb 0.00 in0.0 mm 0.00 in0.0 mm 0.03 in0.8 mm
09:30 AM 52.9°F11.6°C 50.6°F10.3°C 92% 3.0 mph NE4.8 kmh NE 3.0 mph4.8 kmh 30.10 in1019.3 mb 0.00 in0.0 mm 0.00 in0.0 mm 0.03 in0.8 mm
09:32 AM 52.9°F11.6°C 50.4°F10.2°C 91% 6.0 mph ENE9.7 kmh ENE 6.0 mph9.7 kmh 30.10 in1019.3 mb 0.00 in0.0 mm 0.00 in0.0 mm 0.03 in0.8 mm
09:34 AM 52.9°F11.6°C 50.4°F10.2°C 91% 2.0 mph NNE3.2 kmh NNE 4.0 mph6.4 kmh 30.10 in1019.3 mb 0.00 in0.0 mm 0.00 in0.0 mm 0.03 in0.8 mm
09:36 AM 52.9°F11.6°C 50.4°F10.2°C 91% Calm Calm 1.0 mph1.6 kmh 30.10 in1019.3 mb 0.00 in0.0 mm 0.00 in0.0 mm 0.03 in0.8 mm
09:38 AM 52.9°F11.6°C 50.4°F10.2°C 91% 5.0 mph NW8.0 kmh NW 5.0 mph8.0 kmh 30.10 in1019.3 mb 0.00 in0.0 mm 0.00 in0.0 mm 0.03 in0.8 mm
09:40 AM 53.0°F11.7°C 50.5°F10.3°C 91% 2.0 mph N3.2 kmh N 2.0 mph3.2 kmh 30.10 in1019.3 mb 0.00 in0.0 mm 0.00 in0.0 mm 0.03 in0.8 mm
09:42 AM 53.0°F11.7°C 50.7°F10.4°C 92% 1.0 mph N1.6 kmh N 2.0 mph3.2 kmh 30.10 in1019.3 mb 0.00 in0.0 mm 0.00 in0.0 mm 0.03 in0.8 mm
09:44 AM 53.1°F11.7°C 50.8°F10.4°C 92% 1.0 mph ESE1.6 kmh ESE 1.0 mph1.6 kmh 30.10 in1019.3 mb 0.00 in0.0 mm 0.00 in0.0 mm 0.03 in0.8 mm
09:46 AM 53.1°F11.7°C 50.6°F10.3°C 91% 1.0 mph N1.6 kmh N 3.0 mph4.8 kmh 30.10 in1019.3 mb 0.00 in0.0 mm 0.00 in0.0 mm 0.03 in0.8 mm
09:48 AM 53.1°F11.7°C 50.6°F10.3°C 91% Calm Calm 2.0 mph3.2 kmh 30.11 in1019.6 mb 0.00 in0.0 mm 0.00 in0.0 mm 0.03 in0.8 mm
09:50 AM 53.1°F11.7°C 50.6°F10.3°C 91% 1.0 mph NE1.6 kmh NE 3.0 mph4.8 kmh 30.10 in1019.3 mb 0.00 in0.0 mm 0.00 in0.0 mm 0.03 in0.8 mm
09:52 AM 53.2°F11.8°C 50.7°F10.4°C 91% 4.0 mph N6.4 kmh N 4.0 mph6.4 kmh 30.10 in1019.3 mb 0.00 in0.0 mm 0.00 in0.0 mm 0.03 in0.8 mm
09:54 AM 53.2°F11.8°C 50.7°F10.4°C 91% Calm Calm 4.0 mph6.4 kmh 30.10 in1019.3 mb 0.00 in0.0 mm 0.00 in0.0 mm 0.03 in0.8 mm
09:56 AM 53.2°F11.8°C 50.7°F10.4°C 91% 4.0 mph N6.4 kmh N 4.0 mph6.4 kmh 30.10 in1019.3 mb 0.00 in0.0 mm 0.00 in0.0 mm 0.03 in0.8 mm
09:58 AM 53.3°F11.8°C 51.0°F10.6°C 92% 3.0 mph NE4.8 kmh NE 3.0 mph4.8 kmh 30.11 in1019.6 mb 0.00 in0.0 mm 0.00 in0.0 mm 0.03 in0.8 mm
10:00 AM 53.4°F11.9°C 51.1°F10.6°C 92% Calm Calm 2.0 mph3.2 kmh 30.11 in1019.6 mb 0.00 in0.0 mm 0.00 in0.0 mm 0.03 in0.8 mm
10:02 AM 53.5°F11.9°C 51.2°F10.7°C 92% 5.0 mph NNE8.0 kmh NNE 7.0 mph11.3 kmh 30.11 in1019.6 mb 0.00 in0.0 mm 0.00 in0.0 mm 0.03 in0.8 mm
10:04 AM 53.6°F12.0°C 51.3°F10.7°C 92% 2.0 mph E3.2 kmh E 5.0 mph8.0 kmh 30.11 in1019.6 mb 0.00 in0.0 mm 0.00 in0.0 mm 0.03 in0.8 mm
10:06 AM 53.6°F12.0°C 51.0°F10.6°C 91% 2.0 mph E3.2 kmh E 5.0 mph8.0 kmh 30.11 in1019.6 mb 0.00 in0.0 mm 0.00 in0.0 mm 0.03 in0.8 mm
10:08 AM 53.7°F12.1°C 51.4°F10.8°C 92% 3.0 mph N4.8 kmh N 6.0 mph9.7 kmh 30.11 in1019.6 mb 0.00 in0.0 mm 0.00 in0.0 mm 0.03 in0.8 mm
10:10 AM 53.8°F12.1°C 51.2°F10.7°C 91% 1.0 mph NNW1.6 kmh NNW 4.0 mph6.4 kmh 30.11 in1019.6 mb 0.00 in0.0 mm 0.00 in0.0 mm 0.03 in0.8 mm
10:12 AM 53.9°F12.2°C 51.3°F10.7°C 91% 3.0 mph NNE4.8 kmh NNE 5.0 mph8.0 kmh 30.11 in1019.6 mb 0.00 in0.0 mm 0.00 in0.0 mm 0.03 in0.8 mm
10:14 AM 54.0°F12.2°C 51.4°F10.8°C 91% 1.0 mph NE1.6 kmh NE 4.0 mph6.4 kmh 30.11 in1019.6 mb 0.00 in0.0 mm 0.00 in0.0 mm 0.03 in0.8 mm
10:16 AM 54.1°F12.3°C 51.5°F10.8°C 91% 2.0 mph NNE3.2 kmh NNE 9.0 mph14.5 kmh 30.12 in1020.0 mb 0.00 in0.0 mm 0.00 in0.0 mm 0.03 in0.8 mm
10:18 AM 54.1°F12.3°C 51.2°F10.7°C 90% 1.0 mph N1.6 kmh N 7.0 mph11.3 kmh 30.12 in1020.0 mb 0.00 in0.0 mm 0.00 in0.0 mm 0.03 in0.8 mm
10:20 AM 54.1°F12.3°C 51.2°F10.7°C 90% Calm Calm 2.0 mph3.2 kmh 30.12 in1020.0 mb 0.00 in0.0 mm 0.00 in0.0 mm 0.03 in0.8 mm
10:22 AM 54.2°F12.3°C 51.3°F10.7°C 90% 5.0 mph NW8.0 kmh NW 7.0 mph11.3 kmh 30.12 in1020.0 mb 0.00 in0.0 mm 0.00 in0.0 mm 0.03 in0.8 mm
10:24 AM 54.2°F12.3°C 51.3°F10.7°C 90% 2.0 mph N3.2 kmh N 5.0 mph8.0 kmh 30.12 in1020.0 mb 0.00 in0.0 mm 0.00 in0.0 mm 0.03 in0.8 mm
10:26 AM 54.3°F12.4°C 51.4°F10.8°C 90% 2.0 mph NE3.2 kmh NE 2.0 mph3.2 kmh 30.12 in1020.0 mb 0.00 in0.0 mm 0.00 in0.0 mm 0.03 in0.8 mm
10:28 AM 54.4°F12.4°C 51.5°F10.8°C 90% 4.0 mph E6.4 kmh E 4.0 mph6.4 kmh 30.12 in1020.0 mb 0.00 in0.0 mm 0.00 in0.0 mm 0.03 in0.8 mm
10:30 AM 54.4°F12.4°C 51.5°F10.8°C 90% 2.0 mph NE3.2 kmh NE 2.0 mph3.2 kmh 30.12 in1020.0 mb 0.00 in0.0 mm 0.00 in0.0 mm 0.03 in0.8 mm
10:32 AM 54.5°F12.5°C 51.6°F10.9°C 90% Calm Calm -- 30.12 in1020.0 mb 0.00 in0.0 mm 0.00 in0.0 mm 0.03 in0.8 mm
10:34 AM 54.6°F12.6°C 51.7°F10.9°C 90% 4.0 mph NE6.4 kmh NE 4.0 mph6.4 kmh 30.12 in1020.0 mb 0.00 in0.0 mm 0.00 in0.0 mm 0.03 in0.8 mm
10:36 AM 54.6°F12.6°C 51.7°F10.9°C 90% 4.0 mph N6.4 kmh N 4.0 mph6.4 kmh 30.12 in1020.0 mb 0.00 in0.0 mm 0.00 in0.0 mm 0.03 in0.8 mm
10:38 AM 54.8°F12.7°C 51.9°F11.1°C 90% 2.0 mph NE3.2 kmh NE 6.0 mph9.7 kmh 30.12 in1020.0 mb 0.00 in0.0 mm 0.00 in0.0 mm 0.03 in0.8 mm
10:40 AM 54.8°F12.7°C 51.9°F11.1°C 90% 4.0 mph NNW6.4 kmh NNW 4.0 mph6.4 kmh 30.13 in1020.3 mb 0.00 in0.0 mm 0.00 in0.0 mm 0.03 in0.8 mm
10:42 AM 54.8°F12.7°C 51.6°F10.9°C 89% 3.0 mph ENE4.8 kmh ENE 6.0 mph9.7 kmh 30.13 in1020.3 mb 0.00 in0.0 mm 0.00 in0.0 mm 0.03 in0.8 mm
10:44 AM 54.8°F12.7°C 51.6°F10.9°C 89% 2.0 mph NE3.2 kmh NE 2.0 mph3.2 kmh 30.13 in1020.3 mb 0.00 in0.0 mm 0.00 in0.0 mm 0.03 in0.8 mm
10:46 AM 54.8°F12.7°C 51.6°F10.9°C 89% Calm Calm 1.0 mph1.6 kmh 30.12 in1020.0 mb 0.00 in0.0 mm 0.00 in0.0 mm 0.03 in0.8 mm
10:48 AM 54.8°F12.7°C 51.6°F10.9°C 89% Calm Calm 4.0 mph6.4 kmh 30.13 in1020.3 mb 0.00 in0.0 mm 0.00 in0.0 mm 0.03 in0.8 mm
10:50 AM 54.9°F12.7°C 51.7°F10.9°C 89% 1.0 mph N1.6 kmh N 2.0 mph3.2 kmh 30.13 in1020.3 mb 0.00 in0.0 mm 0.00 in0.0 mm 0.03 in0.8 mm
10:52 AM 54.9°F12.7°C 51.7°F10.9°C 89% 3.0 mph NE4.8 kmh NE 7.0 mph11.3 kmh 30.13 in1020.3 mb 0.00 in0.0 mm 0.00 in0.0 mm 0.03 in0.8 mm
10:54 AM 55.0°F12.8°C 51.8°F11.0°C 89% 1.0 mph E1.6 kmh E 4.0 mph6.4 kmh 30.13 in1020.3 mb 0.00 in0.0 mm 0.00 in0.0 mm 0.03 in0.8 mm
10:56 AM 54.9°F12.7°C 51.7°F10.9°C 89% 4.0 mph N6.4 kmh N 5.0 mph8.0 kmh 30.13 in1020.3 mb 0.00 in0.0 mm 0.00 in0.0 mm 0.03 in0.8 mm
10:58 AM 55.0°F12.8°C 51.8°F11.0°C 89% Calm Calm 2.0 mph3.2 kmh 30.13 in1020.3 mb 0.00 in0.0 mm 0.00 in0.0 mm 0.03 in0.8 mm
11:00 AM 55.0°F12.8°C 51.8°F11.0°C 89% Calm Calm 1.0 mph1.6 kmh 30.13 in1020.3 mb 0.00 in0.0 mm 0.00 in0.0 mm 0.03 in0.8 mm
11:02 AM 55.1°F12.8°C 51.9°F11.1°C 89% Calm Calm 2.0 mph3.2 kmh 30.13 in1020.3 mb 0.00 in0.0 mm 0.00 in0.0 mm 0.03 in0.8 mm
11:04 AM 55.1°F12.8°C 51.9°F11.1°C 89% 3.0 mph NE4.8 kmh NE 3.0 mph4.8 kmh 30.13 in1020.3 mb 0.00 in0.0 mm 0.00 in0.0 mm 0.03 in0.8 mm
11:06 AM 55.3°F12.9°C 52.1°F11.2°C 89% Calm Calm 3.0 mph4.8 kmh 30.14 in1020.7 mb 0.00 in0.0 mm 0.00 in0.0 mm 0.03 in0.8 mm
11:08 AM 55.3°F12.9°C 52.1°F11.2°C 89% 4.0 mph W6.4 kmh W 4.0 mph6.4 kmh 30.14 in1020.7 mb 0.00 in0.0 mm 0.00 in0.0 mm 0.03 in0.8 mm
11:10 AM 55.4°F13.0°C 52.2°F11.2°C 89% 6.0 mph NE9.7 kmh NE 7.0 mph11.3 kmh 30.14 in1020.7 mb 0.00 in0.0 mm 0.00 in0.0 mm 0.03 in0.8 mm
11:12 AM 55.4°F13.0°C 51.9°F11.1°C 88% Calm Calm 6.0 mph9.7 kmh 30.14 in1020.7 mb 0.00 in0.0 mm 0.00 in0.0 mm 0.03 in0.8 mm
11:14 AM 55.4°F13.0°C 51.9°F11.1°C 88% 3.0 mph N4.8 kmh N 4.0 mph6.4 kmh 30.14 in1020.7 mb 0.00 in0.0 mm 0.00 in0.0 mm 0.03 in0.8 mm
11:16 AM 55.3°F12.9°C 51.8°F11.0°C 88% Calm Calm 2.0 mph3.2 kmh 30.14 in1020.7 mb 0.00 in0.0 mm 0.00 in0.0 mm 0.03 in0.8 mm
11:18 AM 55.3°F12.9°C 51.8°F11.0°C 88% Calm Calm 3.0 mph4.8 kmh 30.14 in1020.7 mb 0.00 in0.0 mm 0.00 in0.0 mm 0.03 in0.8 mm
11:20 AM 55.3°F12.9°C 51.8°F11.0°C 88% 3.0 mph E4.8 kmh E 3.0 mph4.8 kmh 30.14 in1020.7 mb 0.00 in0.0 mm 0.00 in0.0 mm 0.03 in0.8 mm
11:22 AM 55.3°F12.9°C 51.8°F11.0°C 88% 4.0 mph NW6.4 kmh NW 6.0 mph9.7 kmh 30.14 in1020.7 mb 0.00 in0.0 mm 0.00 in0.0 mm 0.03 in0.8 mm
11:24 AM 55.3°F12.9°C 51.8°F11.0°C 88% 2.0 mph NE3.2 kmh NE 4.0 mph6.4 kmh 30.14 in1020.7 mb 0.00 in0.0 mm 0.00 in0.0 mm 0.03 in0.8 mm
11:26 AM 55.4°F13.0°C 52.2°F11.2°C 89% 2.0 mph NW3.2 kmh NW 6.0 mph9.7 kmh 30.14 in1020.7 mb 0.00 in0.0 mm 0.00 in0.0 mm 0.03 in0.8 mm
11:28 AM 55.4°F13.0°C 51.9°F11.1°C 88% 2.0 mph NE3.2 kmh NE 4.0 mph6.4 kmh 30.14 in1020.7 mb 0.00 in0.0 mm 0.00 in0.0 mm 0.03 in0.8 mm
11:30 AM 55.4°F13.0°C 51.9°F11.1°C 88% 3.0 mph N4.8 kmh N 5.0 mph8.0 kmh 30.14 in1020.7 mb 0.00 in0.0 mm 0.00 in0.0 mm 0.03 in0.8 mm
11:32 AM 55.4°F13.0°C 51.9°F11.1°C 88% 3.0 mph ENE4.8 kmh ENE 10.0 mph16.1 kmh 30.15 in1021.0 mb 0.00 in0.0 mm 0.00 in0.0 mm 0.03 in0.8 mm
11:34 AM 55.4°F13.0°C 51.9°F11.1°C 88% 2.0 mph ENE3.2 kmh ENE 2.0 mph3.2 kmh 30.15 in1021.0 mb 0.00 in0.0 mm 0.00 in0.0 mm 0.03 in0.8 mm
11:36 AM 55.4°F13.0°C 51.9°F11.1°C 88% 3.0 mph NNE4.8 kmh NNE 7.0 mph11.3 kmh 30.15 in1021.0 mb 0.00 in0.0 mm 0.00 in0.0 mm 0.03 in0.8 mm
11:38 AM 55.5°F13.1°C 52.0°F11.1°C 88% 1.0 mph NE1.6 kmh NE 3.0 mph4.8 kmh 30.15 in1021.0 mb 0.00 in0.0 mm 0.00 in0.0 mm 0.03 in0.8 mm
11:40 AM 55.5°F13.1°C 52.0°F11.1°C 88% 10.0 mph NNW16.1 kmh NNW 10.0 mph16.1 kmh 30.15 in1021.0 mb 0.00 in0.0 mm 0.00 in0.0 mm 0.03 in0.8 mm
11:42 AM 55.5°F13.1°C 52.0°F11.1°C 88% 6.0 mph NNE9.7 kmh NNE 6.0 mph9.7 kmh 30.15 in1021.0 mb 0.00 in0.0 mm 0.00 in0.0 mm 0.03 in0.8 mm
11:44 AM 55.6°F13.1°C 52.1°F11.2°C 88% 2.0 mph NNE3.2 kmh NNE 2.0 mph3.2 kmh 30.15 in1021.0 mb 0.00 in0.0 mm 0.00 in0.0 mm 0.03 in0.8 mm
11:46 AM 55.7°F13.2°C 52.2°F11.2°C 88% Calm Calm -- 30.15 in1021.0 mb 0.00 in0.0 mm 0.00 in0.0 mm 0.03 in0.8 mm
11:48 AM 55.7°F13.2°C 52.2°F11.2°C 88% Calm Calm 2.0 mph3.2 kmh 30.15 in1021.0 mb 0.00 in0.0 mm 0.00 in0.0 mm 0.03 in0.8 mm
11:50 AM 55.7°F13.2°C 51.9°F11.1°C 87% 2.0 mph NNE3.2 kmh NNE 2.0 mph3.2 kmh 30.15 in1021.0 mb 0.00 in0.0 mm 0.00 in0.0 mm 0.03 in0.8 mm
11:52 AM 55.8°F13.2°C 52.3°F11.3°C 88% 5.0 mph NW8.0 kmh NW 5.0 mph8.0 kmh 30.15 in1021.0 mb 0.00 in0.0 mm 0.00 in0.0 mm 0.03 in0.8 mm
11:54 AM 55.9°F13.3°C 52.4°F11.3°C 88% 3.0 mph NE4.8 kmh NE 9.0 mph14.5 kmh 30.15 in1021.0 mb 0.00 in0.0 mm 0.00 in0.0 mm 0.03 in0.8 mm
11:56 AM 55.9°F13.3°C 52.1°F11.2°C 87% Calm Calm 3.0 mph4.8 kmh 30.15 in1021.0 mb 0.00 in0.0 mm 0.00 in0.0 mm 0.03 in0.8 mm
11:58 AM 55.9°F13.3°C 52.1°F11.2°C 87% 2.0 mph NW3.2 kmh NW 2.0 mph3.2 kmh 30.15 in1021.0 mb 0.00 in0.0 mm 0.00 in0.0 mm 0.03 in0.8 mm
12:00 PM 55.9°F13.3°C 52.1°F11.2°C 87% Calm Calm -- 30.15 in1021.0 mb 0.00 in0.0 mm 0.00 in0.0 mm 0.03 in0.8 mm
12:02 PM 56.0°F13.3°C 52.5°F11.4°C 88% 3.0 mph NNE4.8 kmh NNE 5.0 mph8.0 kmh 30.16 in1021.3 mb 0.00 in0.0 mm 0.00 in0.0 mm 0.03 in0.8 mm
12:04 PM 56.0°F13.3°C 52.2°F11.2°C 87% 2.0 mph NW3.2 kmh NW 2.0 mph3.2 kmh 30.16 in1021.3 mb 0.00 in0.0 mm 0.00 in0.0 mm 0.03 in0.8 mm
12:06 PM 56.0°F13.3°C 52.2°F11.2°C 87% Calm Calm -- 30.16 in1021.3 mb 0.00 in0.0 mm 0.00 in0.0 mm 0.03 in0.8 mm
12:08 PM 56.0°F13.3°C 52.2°F11.2°C 87% 2.0 mph NE3.2 kmh NE 3.0 mph4.8 kmh 30.15 in1021.0 mb 0.00 in0.0 mm 0.00 in0.0 mm 0.03 in0.8 mm
12:10 PM 56.0°F13.3°C 52.2°F11.2°C 87% Calm Calm 5.0 mph8.0 kmh 30.16 in1021.3 mb 0.00 in0.0 mm 0.00 in0.0 mm 0.03 in0.8 mm
12:12 PM 56.0°F13.3°C 51.9°F11.1°C 86% 3.0 mph NNW4.8 kmh NNW 5.0 mph8.0 kmh 30.16 in1021.3 mb 0.00 in0.0 mm 0.00 in0.0 mm 0.03 in0.8 mm
12:14 PM 55.9°F13.3°C 52.1°F11.2°C 87% 3.0 mph N4.8 kmh N 3.0 mph4.8 kmh 30.16 in1021.3 mb 0.00 in0.0 mm 0.00 in0.0 mm 0.03 in0.8 mm
12:16 PM 55.9°F13.3°C 51.8°F11.0°C 86% 3.0 mph NE4.8 kmh NE 11.0 mph17.7 kmh 30.16 in1021.3 mb 0.00 in0.0 mm 0.00 in0.0 mm 0.03 in0.8 mm
12:18 PM 55.9°F13.3°C 51.8°F11.0°C 86% 5.0 mph NNW8.0 kmh NNW 5.0 mph8.0 kmh 30.16 in1021.3 mb 0.00 in0.0 mm 0.00 in0.0 mm 0.03 in0.8 mm
12:20 PM 55.8°F13.2°C 51.7°F10.9°C 86% 2.0 mph NE3.2 kmh NE 4.0 mph6.4 kmh 30.16 in1021.3 mb 0.00 in0.0 mm 0.00 in0.0 mm 0.03 in0.8 mm
12:22 PM 55.8°F13.2°C 51.7°F10.9°C 86% Calm Calm 2.0 mph3.2 kmh 30.16 in1021.3 mb 0.00 in0.0 mm 0.00 in0.0 mm 0.03 in0.8 mm
12:24 PM 55.8°F13.2°C 52.0°F11.1°C 87% 3.0 mph E4.8 kmh E 3.0 mph4.8 kmh 30.16 in1021.3 mb 0.00 in0.0 mm 0.00 in0.0 mm 0.03 in0.8 mm
12:26 PM 55.8°F13.2°C 51.7°F10.9°C 86% 1.0 mph NNW1.6 kmh NNW 2.0 mph3.2 kmh 30.16 in1021.3 mb 0.00 in0.0 mm 0.00 in0.0 mm 0.03 in0.8 mm
12:28 PM 55.7°F13.2°C 51.6°F10.9°C 86% Calm Calm 3.0 mph4.8 kmh 30.16 in1021.3 mb 0.00 in0.0 mm 0.00 in0.0 mm 0.03 in0.8 mm
12:30 PM 55.7°F13.2°C 51.6°F10.9°C 86% 2.0 mph WNW3.2 kmh WNW 7.0 mph11.3 kmh 30.16 in1021.3 mb 0.00 in0.0 mm 0.00 in0.0 mm 0.03 in0.8 mm
12:32 PM 55.7°F13.2°C 51.6°F10.9°C 86% 1.0 mph N1.6 kmh N 2.0 mph3.2 kmh 30.16 in1021.3 mb 0.00 in0.0 mm 0.00 in0.0 mm 0.03 in0.8 mm
12:34 PM 55.8°F13.2°C 51.7°F10.9°C 86% Calm Calm -- 30.16 in1021.3 mb 0.00 in0.0 mm 0.00 in0.0 mm 0.03 in0.8 mm
12:36 PM 55.9°F13.3°C 52.1°F11.2°C 87% 3.0 mph ENE4.8 kmh ENE 5.0 mph8.0 kmh 30.16 in1021.3 mb 0.00 in0.0 mm 0.00 in0.0 mm 0.03 in0.8 mm
12:38 PM 55.9°F13.3°C 52.1°F11.2°C 87% 2.0 mph NE3.2 kmh NE 8.0 mph12.9 kmh 30.16 in1021.3 mb 0.00 in0.0 mm 0.00 in0.0 mm 0.03 in0.8 mm
12:40 PM 56.0°F13.3°C 52.2°F11.2°C 87% 1.0 mph NE1.6 kmh NE 3.0 mph4.8 kmh 30.16 in1021.3 mb 0.00 in0.0 mm 0.00 in0.0 mm 0.03 in0.8 mm
12:42 PM 56.1°F13.4°C 52.3°F11.3°C 87% 3.0 mph NE4.8 kmh NE 4.0 mph6.4 kmh 30.16 in1021.3 mb 0.00 in0.0 mm 0.00 in0.0 mm 0.03 in0.8 mm
12:44 PM 56.2°F13.4°C 52.4°F11.3°C 87% 2.0 mph NE3.2 kmh NE 5.0 mph8.0 kmh 30.16 in1021.3 mb 0.00 in0.0 mm 0.00 in0.0 mm 0.03 in0.8 mm
12:46 PM 56.3°F13.5°C 52.5°F11.4°C 87% 2.0 mph NE3.2 kmh NE 4.0 mph6.4 kmh 30.16 in1021.3 mb 0.00 in0.0 mm 0.00 in0.0 mm 0.03 in0.8 mm
12:48 PM 56.4°F13.6°C 52.6°F11.4°C 87% Calm Calm 1.0 mph1.6 kmh 30.16 in1021.3 mb 0.00 in0.0 mm 0.00 in0.0 mm 0.03 in0.8 mm
12:50 PM 56.5°F13.6°C 52.4°F11.3°C 86% 4.0 mph NNW6.4 kmh NNW 5.0 mph8.0 kmh 30.16 in1021.3 mb 0.00 in0.0 mm 0.00 in0.0 mm 0.03 in0.8 mm
12:52 PM 56.6°F13.7°C 52.5°F11.4°C 86% 2.0 mph NE3.2 kmh NE 16.0 mph25.7 kmh 30.16 in1021.3 mb 0.00 in0.0 mm 0.00 in0.0 mm 0.03 in0.8 mm
12:54 PM 56.7°F13.7°C 52.6°F11.4°C 86% 2.0 mph NNE3.2 kmh NNE 4.0 mph6.4 kmh 30.16 in1021.3 mb 0.00 in0.0 mm 0.00 in0.0 mm 0.03 in0.8 mm
12:56 PM 56.8°F13.8°C 52.7°F11.5°C 86% 3.0 mph NNW4.8 kmh NNW 4.0 mph6.4 kmh 30.16 in1021.3 mb 0.00 in0.0 mm 0.00 in0.0 mm 0.03 in0.8 mm
12:58 PM 56.9°F13.8°C 52.8°F11.6°C 86% 3.0 mph NNW4.8 kmh NNW 4.0 mph6.4 kmh 30.16 in1021.3 mb 0.00 in0.0 mm 0.00 in0.0 mm 0.03 in0.8 mm
01:00 PM 57.1°F13.9°C 53.0°F11.7°C 86% 2.0 mph WNW3.2 kmh WNW 2.0 mph3.2 kmh 30.16 in1021.3 mb 0.00 in0.0 mm 0.00 in0.0 mm 0.03 in0.8 mm
01:02 PM 57.2°F14.0°C 53.1°F11.7°C 86% 4.0 mph E6.4 kmh E 4.0 mph6.4 kmh 30.16 in1021.3 mb 0.00 in0.0 mm 0.00 in0.0 mm 0.03 in0.8 mm
01:04 PM 57.3°F14.1°C 52.8°F11.6°C 85% 4.0 mph NNW6.4 kmh NNW 10.0 mph16.1 kmh 30.16 in1021.3 mb 0.00 in0.0 mm 0.00 in0.0 mm 0.03 in0.8 mm
01:06 PM 57.5°F14.2°C 53.0°F11.7°C 85% Calm Calm 3.0 mph4.8 kmh 30.16 in1021.3 mb 0.00 in0.0 mm 0.00 in0.0 mm 0.03 in0.8 mm
01:08 PM 57.6°F14.2°C 53.1°F11.7°C 85% 1.0 mph N1.6 kmh N 2.0 mph3.2 kmh 30.16 in1021.3 mb 0.00 in0.0 mm 0.00 in0.0 mm 0.03 in0.8 mm
01:10 PM 57.6°F14.2°C 52.8°F11.6°C 84% Calm Calm 3.0 mph4.8 kmh 30.16 in1021.3 mb 0.00 in0.0 mm 0.00 in0.0 mm 0.03 in0.8 mm
01:12 PM 57.7°F14.3°C 53.2°F11.8°C 85% 5.0 mph NE8.0 kmh NE 5.0 mph8.0 kmh 30.16 in1021.3 mb 0.00 in0.0 mm 0.00 in0.0 mm 0.03 in0.8 mm
01:14 PM 57.8°F14.3°C 53.0°F11.7°C 84% 1.0 mph NE1.6 kmh NE 2.0 mph3.2 kmh 30.16 in1021.3 mb 0.00 in0.0 mm 0.00 in0.0 mm 0.03 in0.8 mm
01:16 PM 57.8°F14.3°C 53.0°F11.7°C 84% 1.0 mph NNE1.6 kmh NNE 5.0 mph8.0 kmh 30.16 in1021.3 mb 0.00 in0.0 mm 0.00 in0.0 mm 0.03 in0.8 mm
01:18 PM 57.8°F14.3°C 52.7°F11.5°C 83% 11.0 mph NW17.7 kmh NW 11.0 mph17.7 kmh 30.16 in1021.3 mb 0.00 in0.0 mm 0.00 in0.0 mm 0.03 in0.8 mm
01:20 PM 57.8°F14.3°C 52.7°F11.5°C 83% 1.0 mph NNW1.6 kmh NNW 8.0 mph12.9 kmh 30.16 in1021.3 mb 0.00 in0.0 mm 0.00 in0.0 mm 0.03 in0.8 mm
01:22 PM 57.9°F14.4°C 52.8°F11.6°C 83% 3.0 mph NW4.8 kmh NW 3.0 mph4.8 kmh 30.16 in1021.3 mb 0.00 in0.0 mm 0.00 in0.0 mm 0.03 in0.8 mm
01:24 PM 57.9°F14.4°C 52.8°F11.6°C 83% 1.0 mph NW1.6 kmh NW 8.0 mph12.9 kmh 30.16 in1021.3 mb 0.00 in0.0 mm 0.00 in0.0 mm 0.03 in0.8 mm
01:26 PM 58.0°F14.4°C 52.9°F11.6°C 83% 1.0 mph NNE1.6 kmh NNE 5.0 mph8.0 kmh 30.16 in1021.3 mb 0.00 in0.0 mm 0.00 in0.0 mm 0.03 in0.8 mm
01:28 PM 58.1°F14.5°C 53.0°F11.7°C 83% 1.0 mph N1.6 kmh N 2.0 mph3.2 kmh 30.16 in1021.3 mb 0.00 in0.0 mm 0.00 in0.0 mm 0.03 in0.8 mm
01:30 PM 58.2°F14.6°C 53.1°F11.7°C 83% 2.0 mph WNW3.2 kmh WNW 5.0 mph8.0 kmh 30.15 in1021.0 mb 0.00 in0.0 mm 0.00 in0.0 mm 0.03 in0.8 mm
01:32 PM 58.2°F14.6°C 52.7°F11.5°C 82% 6.0 mph NNE9.7 kmh NNE 6.0 mph9.7 kmh 30.15 in1021.0 mb 0.00 in0.0 mm 0.00 in0.0 mm 0.03 in0.8 mm
01:34 PM 58.2°F14.6°C 52.7°F11.5°C 82% 3.0 mph E4.8 kmh E 6.0 mph9.7 kmh 30.15 in1021.0 mb 0.00 in0.0 mm 0.00 in0.0 mm 0.03 in0.8 mm
01:36 PM 58.3°F14.6°C 52.8°F11.6°C 82% 1.0 mph ESE1.6 kmh ESE 3.0 mph4.8 kmh 30.15 in1021.0 mb 0.00 in0.0 mm 0.00 in0.0 mm 0.03 in0.8 mm
01:38 PM 58.4°F14.7°C 52.9°F11.6°C 82% 6.0 mph WNW9.7 kmh WNW 9.0 mph14.5 kmh 30.15 in1021.0 mb 0.00 in0.0 mm 0.00 in0.0 mm 0.03 in0.8 mm
01:40 PM 58.5°F14.7°C 53.0°F11.7°C 82% 6.0 mph ENE9.7 kmh ENE 6.0 mph9.7 kmh 30.15 in1021.0 mb 0.00 in0.0 mm 0.00 in0.0 mm 0.03 in0.8 mm
01:42 PM 58.6°F14.8°C 53.1°F11.7°C 82% 3.0 mph NW4.8 kmh NW 6.0 mph9.7 kmh 30.15 in1021.0 mb 0.00 in0.0 mm 0.00 in0.0 mm 0.03 in0.8 mm
01:44 PM 58.8°F14.9°C 53.3°F11.8°C 82% 2.0 mph NNW3.2 kmh NNW 7.0 mph11.3 kmh 30.15 in1021.0 mb 0.00 in0.0 mm 0.00 in0.0 mm 0.03 in0.8 mm
01:46 PM 58.9°F14.9°C 53.4°F11.9°C 82% 4.0 mph N6.4 kmh N 11.0 mph17.7 kmh 30.15 in1021.0 mb 0.00 in0.0 mm 0.00 in0.0 mm 0.03 in0.8 mm
01:48 PM 59.0°F15.0°C 53.2°F11.8°C 81% 4.0 mph NE6.4 kmh NE 10.0 mph16.1 kmh 30.16 in1021.3 mb 0.00 in0.0 mm 0.00 in0.0 mm 0.03 in0.8 mm
01:50 PM 59.1°F15.1°C 52.9°F11.6°C 80% 3.0 mph SE4.8 kmh SE 12.0 mph19.3 kmh 30.16 in1021.3 mb 0.00 in0.0 mm 0.00 in0.0 mm 0.03 in0.8 mm
01:52 PM 59.0°F15.0°C 52.9°F11.6°C 80% 6.0 mph NE9.7 kmh NE 6.0 mph9.7 kmh 30.15 in1021.0 mb 0.00 in0.0 mm 0.00 in0.0 mm 0.03 in0.8 mm
01:54 PM 59.0°F15.0°C 52.9°F11.6°C 80% 5.0 mph NNE8.0 kmh NNE 9.0 mph14.5 kmh 30.15 in1021.0 mb 0.00 in0.0 mm 0.00 in0.0 mm 0.03 in0.8 mm
01:56 PM 59.0°F15.0°C 52.9°F11.6°C 80% 1.0 mph N1.6 kmh N 5.0 mph8.0 kmh 30.16 in1021.3 mb 0.00 in0.0 mm 0.00 in0.0 mm 0.03 in0.8 mm
01:58 PM 58.9°F14.9°C 52.8°F11.6°C 80% 4.0 mph NNW6.4 kmh NNW 9.0 mph14.5 kmh 30.15 in1021.0 mb 0.00 in0.0 mm 0.00 in0.0 mm 0.03 in0.8 mm
02:00 PM 58.9°F14.9°C 52.8°F11.6°C 80% 5.0 mph NNW8.0 kmh NNW 7.0 mph11.3 kmh 30.15 in1021.0 mb 0.00 in0.0 mm 0.00 in0.0 mm 0.03 in0.8 mm
02:02 PM 58.8°F14.9°C 52.7°F11.5°C 80% 4.0 mph NE6.4 kmh NE 4.0 mph6.4 kmh 30.16 in1021.3 mb 0.00 in0.0 mm 0.00 in0.0 mm 0.03 in0.8 mm
02:04 PM 58.7°F14.8°C 52.6°F11.4°C 80% 1.0 mph N1.6 kmh N 6.0 mph9.7 kmh 30.16 in1021.3 mb 0.00 in0.0 mm 0.00 in0.0 mm 0.03 in0.8 mm
02:06 PM 58.7°F14.8°C 52.9°F11.6°C 81% 2.0 mph NE3.2 kmh NE 3.0 mph4.8 kmh 30.16 in1021.3 mb 0.00 in0.0 mm 0.00 in0.0 mm 0.03 in0.8 mm
02:08 PM 58.7°F14.8°C 52.6°F11.4°C 80% 4.0 mph ENE6.4 kmh ENE 4.0 mph6.4 kmh 30.16 in1021.3 mb 0.00 in0.0 mm 0.00 in0.0 mm 0.03 in0.8 mm
02:10 PM 58.7°F14.8°C 52.6°F11.4°C 80% 3.0 mph N4.8 kmh N 9.0 mph14.5 kmh 30.16 in1021.3 mb 0.00 in0.0 mm 0.00 in0.0 mm 0.03 in0.8 mm
02:12 PM 58.7°F14.8°C 52.9°F11.6°C 81% 1.0 mph NNE1.6 kmh NNE 3.0 mph4.8 kmh 30.16 in1021.3 mb 0.00 in0.0 mm 0.00 in0.0 mm 0.03 in0.8 mm
02:14 PM 58.8°F14.9°C 53.0°F11.7°C 81% 1.0 mph NE1.6 kmh NE 3.0 mph4.8 kmh 30.16 in1021.3 mb 0.00 in0.0 mm 0.00 in0.0 mm 0.03 in0.8 mm
02:16 PM 58.9°F14.9°C 53.1°F11.7°C 81% Calm Calm 9.0 mph14.5 kmh 30.16 in1021.3 mb 0.00 in0.0 mm 0.00 in0.0 mm 0.03 in0.8 mm
02:18 PM 58.9°F14.9°C 52.8°F11.6°C 80% 6.0 mph NNW9.7 kmh NNW 11.0 mph17.7 kmh 30.16 in1021.3 mb 0.00 in0.0 mm 0.00 in0.0 mm 0.03 in0.8 mm
02:20 PM 58.9°F14.9°C 52.8°F11.6°C 80% 1.0 mph NE1.6 kmh NE 5.0 mph8.0 kmh 30.16 in1021.3 mb 0.00 in0.0 mm 0.00 in0.0 mm 0.03 in0.8 mm
02:22 PM 58.8°F14.9°C 52.7°F11.5°C 80% 3.0 mph N4.8 kmh N 10.0 mph16.1 kmh 30.16 in1021.3 mb 0.00 in0.0 mm 0.00 in0.0 mm 0.03 in0.8 mm
02:24 PM 58.7°F14.8°C 52.6°F11.4°C 80% 2.0 mph NNW3.2 kmh NNW 10.0 mph16.1 kmh 30.16 in1021.3 mb 0.00 in0.0 mm 0.00 in0.0 mm 0.03 in0.8 mm
02:26 PM 58.7°F14.8°C 52.6°F11.4°C 80% 4.0 mph NW6.4 kmh NW 4.0 mph6.4 kmh 30.16 in1021.3 mb 0.00 in0.0 mm 0.00 in0.0 mm 0.03 in0.8 mm
02:28 PM 58.7°F14.8°C 52.9°F11.6°C 81% Calm Calm 3.0 mph4.8 kmh 30.16 in1021.3 mb 0.00 in0.0 mm 0.00 in0.0 mm 0.03 in0.8 mm
02:30 PM 58.7°F14.8°C 52.9°F11.6°C 81% 7.0 mph NNW11.3 kmh NNW 14.0 mph22.5 kmh 30.16 in1021.3 mb 0.00 in0.0 mm 0.00 in0.0 mm 0.03 in0.8 mm
02:32 PM 58.6°F14.8°C 52.5°F11.4°C 80% 3.0 mph NNE4.8 kmh NNE 5.0 mph8.0 kmh 30.16 in1021.3 mb 0.00 in0.0 mm 0.00 in0.0 mm 0.03 in0.8 mm
02:34 PM 58.6°F14.8°C 52.5°F11.4°C 80% 3.0 mph NNW4.8 kmh NNW 5.0 mph8.0 kmh 30.17 in1021.7 mb 0.00 in0.0 mm 0.00 in0.0 mm 0.03 in0.8 mm
02:36 PM 58.7°F14.8°C 52.6°F11.4°C 80% 3.0 mph N4.8 kmh N 3.0 mph4.8 kmh 30.17 in1021.7 mb 0.00 in0.0 mm 0.00 in0.0 mm 0.03 in0.8 mm
02:38 PM 58.7°F14.8°C 52.6°F11.4°C 80% 4.0 mph N6.4 kmh N 12.0 mph19.3 kmh 30.17 in1021.7 mb 0.00 in0.0 mm 0.00 in0.0 mm 0.03 in0.8 mm
02:40 PM 58.8°F14.9°C 52.7°F11.5°C 80% 2.0 mph NNW3.2 kmh NNW 11.0 mph17.7 kmh 30.17 in1021.7 mb 0.00 in0.0 mm 0.00 in0.0 mm 0.03 in0.8 mm
02:42 PM 58.8°F14.9°C 52.7°F11.5°C 80% 1.0 mph NNW1.6 kmh NNW 3.0 mph4.8 kmh 30.17 in1021.7 mb 0.00 in0.0 mm 0.00 in0.0 mm 0.03 in0.8 mm
02:44 PM 58.8°F14.9°C 52.7°F11.5°C 80% 10.0 mph NW16.1 kmh NW 12.0 mph19.3 kmh 30.17 in1021.7 mb 0.00 in0.0 mm 0.00 in0.0 mm 0.03 in0.8 mm
02:46 PM 58.7°F14.8°C 52.2°F11.2°C 79% 5.0 mph NE8.0 kmh NE 6.0 mph9.7 kmh 30.17 in1021.7 mb 0.00 in0.0 mm 0.00 in0.0 mm 0.03 in0.8 mm
02:48 PM 58.7°F14.8°C 52.2°F11.2°C 79% 2.0 mph N3.2 kmh N 7.0 mph11.3 kmh 30.17 in1021.7 mb 0.00 in0.0 mm 0.00 in0.0 mm 0.03 in0.8 mm
02:50 PM 58.7°F14.8°C 52.6°F11.4°C 80% 9.0 mph WNW14.5 kmh WNW 13.0 mph20.9 kmh 30.17 in1021.7 mb 0.00 in0.0 mm 0.00 in0.0 mm 0.03 in0.8 mm
02:52 PM 58.7°F14.8°C 52.6°F11.4°C 80% 4.0 mph NW6.4 kmh NW 4.0 mph6.4 kmh 30.17 in1021.7 mb 0.00 in0.0 mm 0.00 in0.0 mm 0.03 in0.8 mm
02:54 PM 58.7°F14.8°C 52.2°F11.2°C 79% 2.0 mph NW3.2 kmh NW 5.0 mph8.0 kmh 30.17 in1021.7 mb 0.00 in0.0 mm 0.00 in0.0 mm 0.03 in0.8 mm
02:56 PM 58.7°F14.8°C 52.2°F11.2°C 79% 9.0 mph NW14.5 kmh NW 9.0 mph14.5 kmh 30.17 in1021.7 mb 0.00 in0.0 mm 0.00 in0.0 mm 0.03 in0.8 mm
02:58 PM 58.6°F14.8°C 51.8°F11.0°C 78% 4.0 mph N6.4 kmh N 8.0 mph12.9 kmh 30.18 in1022.0 mb 0.00 in0.0 mm 0.00 in0.0 mm 0.03 in0.8 mm
03:00 PM 58.6°F14.8°C 52.1°F11.2°C 79% 5.0 mph NNE8.0 kmh NNE 12.0 mph19.3 kmh 30.17 in1021.7 mb 0.00 in0.0 mm 0.00 in0.0 mm 0.03 in0.8 mm
03:02 PM 58.6°F14.8°C 52.1°F11.2°C 79% 6.0 mph NW9.7 kmh NW 6.0 mph9.7 kmh 30.18 in1022.0 mb 0.00 in0.0 mm 0.00 in0.0 mm 0.03 in0.8 mm
03:04 PM 58.6°F14.8°C 52.1°F11.2°C 79% 2.0 mph N3.2 kmh N 3.0 mph4.8 kmh 30.17 in1021.7 mb 0.00 in0.0 mm 0.00 in0.0 mm 0.03 in0.8 mm
03:06 PM 58.6°F14.8°C 52.1°F11.2°C 79% 2.0 mph N3.2 kmh N 5.0 mph8.0 kmh 30.17 in1021.7 mb 0.00 in0.0 mm 0.00 in0.0 mm 0.03 in0.8 mm
03:08 PM 58.6°F14.8°C 52.1°F11.2°C 79% 3.0 mph N4.8 kmh N 4.0 mph6.4 kmh 30.18 in1022.0 mb 0.00 in0.0 mm 0.00 in0.0 mm 0.03 in0.8 mm
03:10 PM 58.5°F14.7°C 51.7°F10.9°C 78% 3.0 mph N4.8 kmh N 7.0 mph11.3 kmh 30.18 in1022.0 mb 0.00 in0.0 mm 0.00 in0.0 mm 0.03 in0.8 mm
03:12 PM 58.4°F14.7°C 51.6°F10.9°C 78% Calm Calm 6.0 mph9.7 kmh 30.18 in1022.0 mb 0.00 in0.0 mm 0.00 in0.0 mm 0.03 in0.8 mm
03:14 PM 58.3°F14.6°C 51.8°F11.0°C 79% 1.0 mph NW1.6 kmh NW 2.0 mph3.2 kmh 30.18 in1022.0 mb 0.00 in0.0 mm 0.00 in0.0 mm 0.03 in0.8 mm
03:16 PM 58.1°F14.5°C 51.3°F10.7°C 78% 2.0 mph N3.2 kmh N 3.0 mph4.8 kmh 30.19 in1022.4 mb 0.00 in0.0 mm 0.00 in0.0 mm 0.03 in0.8 mm
03:18 PM 58.0°F14.4°C 51.2°F10.7°C 78% 3.0 mph NNW4.8 kmh NNW 6.0 mph9.7 kmh 30.19 in1022.4 mb 0.00 in0.0 mm 0.00 in0.0 mm 0.03 in0.8 mm
03:20 PM 57.7°F14.3°C 50.9°F10.5°C 78% 5.0 mph NNW8.0 kmh NNW 12.0 mph19.3 kmh 30.19 in1022.4 mb 0.00 in0.0 mm 0.00 in0.0 mm 0.03 in0.8 mm
03:22 PM 57.5°F14.2°C 50.7°F10.4°C 78% 4.0 mph NW6.4 kmh NW 7.0 mph11.3 kmh 30.19 in1022.4 mb 0.00 in0.0 mm 0.00 in0.0 mm 0.03 in0.8 mm
03:24 PM 57.3°F14.1°C 50.9°F10.5°C 79% 2.0 mph W3.2 kmh W 4.0 mph6.4 kmh 30.19 in1022.4 mb 0.00 in0.0 mm 0.00 in0.0 mm 0.03 in0.8 mm
03:26 PM 57.1°F13.9°C 50.7°F10.4°C 79% 6.0 mph NW9.7 kmh NW 6.0 mph9.7 kmh 30.19 in1022.4 mb 0.00 in0.0 mm 0.00 in0.0 mm 0.03 in0.8 mm
03:28 PM 56.9°F13.8°C 50.8°F10.4°C 80% Calm Calm 4.0 mph6.4 kmh 30.19 in1022.4 mb 0.00 in0.0 mm 0.00 in0.0 mm 0.03 in0.8 mm
03:30 PM 56.8°F13.8°C 50.7°F10.4°C 80% 3.0 mph N4.8 kmh N 3.0 mph4.8 kmh 30.19 in1022.4 mb 0.00 in0.0 mm 0.00 in0.0 mm 0.03 in0.8 mm
03:32 PM 56.6°F13.7°C 50.9°F10.5°C 81% 9.0 mph NNW14.5 kmh NNW 9.0 mph14.5 kmh 30.19 in1022.4 mb 0.00 in0.0 mm 0.00 in0.0 mm 0.03 in0.8 mm
03:34 PM 56.5°F13.6°C 50.4°F10.2°C 80% 2.0 mph NNE3.2 kmh NNE 7.0 mph11.3 kmh 30.19 in1022.4 mb 0.00 in0.0 mm 0.00 in0.0 mm 0.03 in0.8 mm
03:36 PM 56.4°F13.6°C 50.3°F10.2°C 80% 5.0 mph NW8.0 kmh NW 5.0 mph8.0 kmh 30.19 in1022.4 mb 0.00 in0.0 mm 0.00 in0.0 mm 0.03 in0.8 mm
03:38 PM 56.3°F13.5°C 50.6°F10.3°C 81% 4.0 mph E6.4 kmh E 12.0 mph19.3 kmh 30.19 in1022.4 mb 0.00 in0.0 mm 0.00 in0.0 mm 0.03 in0.8 mm
03:40 PM 56.2°F13.4°C 50.5°F10.3°C 81% 5.0 mph NW8.0 kmh NW 5.0 mph8.0 kmh 30.19 in1022.4 mb 0.00 in0.0 mm 0.00 in0.0 mm 0.03 in0.8 mm
03:42 PM 56.0°F13.3°C 50.3°F10.2°C 81% 2.0 mph ESE3.2 kmh ESE 5.0 mph8.0 kmh 30.19 in1022.4 mb 0.00 in0.0 mm 0.00 in0.0 mm 0.03 in0.8 mm
03:44 PM 55.9°F13.3°C 50.2°F10.1°C 81% 2.0 mph NNE3.2 kmh NNE 9.0 mph14.5 kmh 30.19 in1022.4 mb 0.00 in0.0 mm 0.00 in0.0 mm 0.03 in0.8 mm
03:46 PM 55.8°F13.2°C 50.1°F10.1°C 81% 4.0 mph NNW6.4 kmh NNW 6.0 mph9.7 kmh 30.20 in1022.7 mb 0.00 in0.0 mm 0.00 in0.0 mm 0.03 in0.8 mm
03:48 PM 55.7°F13.2°C 50.0°F10.0°C 81% 6.0 mph NW9.7 kmh NW 10.0 mph16.1 kmh 30.20 in1022.7 mb 0.00 in0.0 mm 0.00 in0.0 mm 0.03 in0.8 mm
03:50 PM 55.6°F13.1°C 49.9°F9.9°C 81% 3.0 mph N4.8 kmh N 9.0 mph14.5 kmh 30.20 in1022.7 mb 0.00 in0.0 mm 0.00 in0.0 mm 0.03 in0.8 mm
03:52 PM 55.5°F13.1°C 50.1°F10.1°C 82% Calm Calm 4.0 mph6.4 kmh 30.20 in1022.7 mb 0.00 in0.0 mm 0.00 in0.0 mm 0.03 in0.8 mm
03:54 PM 55.4°F13.0°C 51.0°F10.6°C 85% 9.0 mph N14.5 kmh N 9.0 mph14.5 kmh 30.20 in1022.7 mb 0.00 in0.0 mm 0.00 in0.0 mm 0.03 in0.8 mm
03:56 PM 55.3°F12.9°C 49.9°F9.9°C 82% 5.0 mph NW8.0 kmh NW 11.0 mph17.7 kmh 30.20 in1022.7 mb 0.00 in0.0 mm 0.00 in0.0 mm 0.03 in0.8 mm
03:58 PM 55.2°F12.9°C 49.8°F9.9°C 82% 3.0 mph NW4.8 kmh NW 6.0 mph9.7 kmh 30.20 in1022.7 mb 0.00 in0.0 mm 0.00 in0.0 mm 0.03 in0.8 mm
04:00 PM 55.1°F12.8°C 50.0°F10.0°C 83% 6.0 mph NNW9.7 kmh NNW 6.0 mph9.7 kmh 30.20 in1022.7 mb 0.00 in0.0 mm 0.00 in0.0 mm 0.03 in0.8 mm
04:02 PM 55.1°F12.8°C 50.0°F10.0°C 83% 10.0 mph NW16.1 kmh NW 10.0 mph16.1 kmh 30.20 in1022.7 mb 0.00 in0.0 mm 0.00 in0.0 mm 0.03 in0.8 mm
04:04 PM 55.0°F12.8°C 49.9°F9.9°C 83% 2.0 mph NE3.2 kmh NE 3.0 mph4.8 kmh 30.20 in1022.7 mb 0.00 in0.0 mm 0.00 in0.0 mm 0.03 in0.8 mm
04:06 PM 54.9°F12.7°C 49.8°F9.9°C 83% 4.0 mph NW6.4 kmh NW 7.0 mph11.3 kmh 30.20 in1022.7 mb 0.00 in0.0 mm 0.00 in0.0 mm 0.03 in0.8 mm
04:08 PM 54.9°F12.7°C 50.2°F10.1°C 84% 2.0 mph NE3.2 kmh NE 5.0 mph8.0 kmh 30.20 in1022.7 mb 0.00 in0.0 mm 0.00 in0.0 mm 0.03 in0.8 mm
04:10 PM 54.9°F12.7°C 50.2°F10.1°C 84% 3.0 mph N4.8 kmh N 6.0 mph9.7 kmh 30.20 in1022.7 mb 0.00 in0.0 mm 0.00 in0.0 mm 0.03 in0.8 mm
04:12 PM 54.8°F12.7°C 50.4°F10.2°C 85% 1.0 mph NNW1.6 kmh NNW 5.0 mph8.0 kmh 30.20 in1022.7 mb 0.00 in0.0 mm 0.00 in0.0 mm 0.03 in0.8 mm
04:14 PM 54.8°F12.7°C 50.4°F10.2°C 85% Calm Calm 5.0 mph8.0 kmh 30.20 in1022.7 mb 0.00 in0.0 mm 0.00 in0.0 mm 0.03 in0.8 mm
04:16 PM 54.7°F12.6°C 50.3°F10.2°C 85% 3.0 mph NNW4.8 kmh NNW 11.0 mph17.7 kmh 30.20 in1022.7 mb 0.00 in0.0 mm 0.00 in0.0 mm 0.03 in0.8 mm
04:18 PM 54.7°F12.6°C 50.3°F10.2°C 85% Calm Calm 2.0 mph3.2 kmh 30.20 in1022.7 mb 0.00 in0.0 mm 0.00 in0.0 mm 0.03 in0.8 mm
04:20 PM 54.6°F12.6°C 50.2°F10.1°C 85% 6.0 mph NW9.7 kmh NW 6.0 mph9.7 kmh 30.21 in1023.0 mb 0.00 in0.0 mm 0.00 in0.0 mm 0.03 in0.8 mm
04:22 PM 54.6°F12.6°C 50.2°F10.1°C 85% 3.0 mph NW4.8 kmh NW 3.0 mph4.8 kmh 30.21 in1023.0 mb 0.00 in0.0 mm 0.00 in0.0 mm 0.03 in0.8 mm
04:24 PM 54.6°F12.6°C 50.2°F10.1°C 85% 1.0 mph N1.6 kmh N 2.0 mph3.2 kmh 30.21 in1023.0 mb 0.00 in0.0 mm 0.00 in0.0 mm 0.03 in0.8 mm
04:26 PM 54.6°F12.6°C 50.2°F10.1°C 85% 6.0 mph NW9.7 kmh NW 7.0 mph11.3 kmh 30.21 in1023.0 mb 0.00 in0.0 mm 0.00 in0.0 mm 0.03 in0.8 mm
04:28 PM 54.6°F12.6°C 49.9°F9.9°C 84% 3.0 mph N4.8 kmh N 17.0 mph27.4 kmh 30.21 in1023.0 mb 0.00 in0.0 mm 0.00 in0.0 mm 0.03 in0.8 mm
04:30 PM 54.6°F12.6°C 49.9°F9.9°C 84% 6.0 mph NNE9.7 kmh NNE 6.0 mph9.7 kmh 30.21 in1023.0 mb 0.00 in0.0 mm 0.00 in0.0 mm 0.03 in0.8 mm
04:32 PM 54.6°F12.6°C 49.9°F9.9°C 84% 3.0 mph NNW4.8 kmh NNW 11.0 mph17.7 kmh 30.21 in1023.0 mb 0.00 in0.0 mm 0.00 in0.0 mm 0.03 in0.8 mm
04:34 PM 54.6°F12.6°C 49.9°F9.9°C 84% Calm Calm -- 30.21 in1023.0 mb 0.00 in0.0 mm 0.00 in0.0 mm 0.03 in0.8 mm
04:36 PM 54.6°F12.6°C 49.9°F9.9°C 84% 1.0 mph N1.6 kmh N 3.0 mph4.8 kmh 30.21 in1023.0 mb 0.00 in0.0 mm 0.00 in0.0 mm 0.03 in0.8 mm
04:38 PM 54.6°F12.6°C 49.9°F9.9°C 84% 3.0 mph NNW4.8 kmh NNW 8.0 mph12.9 kmh 30.21 in1023.0 mb 0.00 in0.0 mm 0.00 in0.0 mm 0.03 in0.8 mm
04:40 PM 54.6°F12.6°C 49.9°F9.9°C 84% 3.0 mph N4.8 kmh N 4.0 mph6.4 kmh 30.21 in1023.0 mb 0.00 in0.0 mm 0.00 in0.0 mm 0.03 in0.8 mm
04:42 PM 54.6°F12.6°C 49.9°F9.9°C 84% 4.0 mph NW6.4 kmh NW 4.0 mph6.4 kmh 30.21 in1023.0 mb 0.00 in0.0 mm 0.00 in0.0 mm 0.03 in0.8 mm
04:44 PM 54.6°F12.6°C 49.9°F9.9°C 84% 1.0 mph NW1.6 kmh NW 5.0 mph8.0 kmh 30.21 in1023.0 mb 0.00 in0.0 mm 0.00 in0.0 mm 0.03 in0.8 mm
04:46 PM 54.6°F12.6°C 49.9°F9.9°C 84% 10.0 mph NW16.1 kmh NW 10.0 mph16.1 kmh 30.21 in1023.0 mb 0.00 in0.0 mm 0.00 in0.0 mm 0.03 in0.8 mm
04:48 PM 54.6°F12.6°C 49.9°F9.9°C 84% 4.0 mph NE6.4 kmh NE 5.0 mph8.0 kmh 30.22 in1023.4 mb 0.00 in0.0 mm 0.00 in0.0 mm 0.03 in0.8 mm
04:50 PM 54.6°F12.6°C 49.6°F9.8°C 83% 7.0 mph N11.3 kmh N 11.0 mph17.7 kmh 30.21 in1023.0 mb 0.00 in0.0 mm 0.00 in0.0 mm 0.03 in0.8 mm
04:52 PM 54.6°F12.6°C 49.9°F9.9°C 84% 3.0 mph ENE4.8 kmh ENE 4.0 mph6.4 kmh 30.21 in1023.0 mb 0.00 in0.0 mm 0.00 in0.0 mm 0.03 in0.8 mm
04:54 PM 54.6°F12.6°C 49.9°F9.9°C 84% 1.0 mph NW1.6 kmh NW 6.0 mph9.7 kmh 30.22 in1023.4 mb 0.00 in0.0 mm 0.00 in0.0 mm 0.03 in0.8 mm
04:56 PM 54.6°F12.6°C 49.9°F9.9°C 84% 1.0 mph N1.6 kmh N 5.0 mph8.0 kmh 30.22 in1023.4 mb 0.00 in0.0 mm 0.00 in0.0 mm 0.03 in0.8 mm
04:58 PM 54.7°F12.6°C 50.0°F10.0°C 84% 4.0 mph NNE6.4 kmh NNE 6.0 mph9.7 kmh 30.22 in1023.4 mb 0.00 in0.0 mm 0.00 in0.0 mm 0.03 in0.8 mm
05:00 PM 54.7°F12.6°C 49.7°F9.8°C 83% 3.0 mph NNW4.8 kmh NNW 3.0 mph4.8 kmh 30.22 in1023.4 mb 0.00 in0.0 mm 0.00 in0.0 mm 0.03 in0.8 mm
05:02 PM 54.7°F12.6°C 49.7°F9.8°C 83% 3.0 mph NE4.8 kmh NE 6.0 mph9.7 kmh 30.22 in1023.4 mb 0.00 in0.0 mm 0.00 in0.0 mm 0.03 in0.8 mm
05:04 PM 54.7°F12.6°C 49.7°F9.8°C 83% Calm Calm 5.0 mph8.0 kmh 30.22 in1023.4 mb 0.00 in0.0 mm 0.00 in0.0 mm 0.03 in0.8 mm
05:06 PM 54.6°F12.6°C 49.6°F9.8°C 83% 3.0 mph NW4.8 kmh NW 10.0 mph16.1 kmh 30.22 in1023.4 mb 0.00 in0.0 mm 0.00 in0.0 mm 0.03 in0.8 mm
05:08 PM 54.6°F12.6°C 49.6°F9.8°C 83% 2.0 mph N3.2 kmh N 3.0 mph4.8 kmh 30.22 in1023.4 mb 0.00 in0.0 mm 0.00 in0.0 mm 0.03 in0.8 mm
05:10 PM 54.6°F12.6°C 49.6°F9.8°C 83% Calm Calm -- 30.22 in1023.4 mb 0.00 in0.0 mm 0.00 in0.0 mm 0.03 in0.8 mm
05:12 PM 54.6°F12.6°C 49.6°F9.8°C 83% 2.0 mph N3.2 kmh N 4.0 mph6.4 kmh 30.22 in1023.4 mb 0.00 in0.0 mm 0.00 in0.0 mm 0.03 in0.8 mm
05:14 PM 54.6°F12.6°C 49.6°F9.8°C 83% 12.0 mph NW19.3 kmh NW 13.0 mph20.9 kmh 30.22 in1023.4 mb 0.00 in0.0 mm 0.00 in0.0 mm 0.03 in0.8 mm
05:16 PM 54.6°F12.6°C 49.6°F9.8°C 83% 3.0 mph NNW4.8 kmh NNW 4.0 mph6.4 kmh 30.23 in1023.7 mb 0.00 in0.0 mm 0.00 in0.0 mm 0.03 in0.8 mm
05:18 PM 54.5°F12.5°C 49.5°F9.7°C 83% 2.0 mph N3.2 kmh N 6.0 mph9.7 kmh 30.23 in1023.7 mb 0.00 in0.0 mm 0.00 in0.0 mm 0.03 in0.8 mm
05:20 PM 54.5°F12.5°C 49.5°F9.7°C 83% Calm Calm 1.0 mph1.6 kmh 30.23 in1023.7 mb 0.00 in0.0 mm 0.00 in0.0 mm 0.03 in0.8 mm
05:22 PM 54.5°F12.5°C 49.5°F9.7°C 83% 3.0 mph NNW4.8 kmh NNW 5.0 mph8.0 kmh 30.23 in1023.7 mb 0.00 in0.0 mm 0.00 in0.0 mm 0.03 in0.8 mm
05:24 PM 54.5°F12.5°C 49.5°F9.7°C 83% 4.0 mph NNE6.4 kmh NNE 4.0 mph6.4 kmh 30.23 in1023.7 mb 0.00 in0.0 mm 0.00 in0.0 mm 0.03 in0.8 mm
05:26 PM 54.5°F12.5°C 49.8°F9.9°C 84% 3.0 mph NNW4.8 kmh NNW 9.0 mph14.5 kmh 30.23 in1023.7 mb 0.00 in0.0 mm 0.00 in0.0 mm 0.03 in0.8 mm
05:28 PM 54.5°F12.5°C 49.5°F9.7°C 83% 5.0 mph ESE8.0 kmh ESE 5.0 mph8.0 kmh 30.23 in1023.7 mb 0.00 in0.0 mm 0.00 in0.0 mm 0.03 in0.8 mm
05:30 PM 54.4°F12.4°C 49.4°F9.7°C 83% 3.0 mph SW4.8 kmh SW 4.0 mph6.4 kmh 30.23 in1023.7 mb 0.00 in0.0 mm 0.00 in0.0 mm 0.03 in0.8 mm
05:32 PM 54.4°F12.4°C 49.4°F9.7°C 83% 1.0 mph NNW1.6 kmh NNW 3.0 mph4.8 kmh 30.23 in1023.7 mb 0.00 in0.0 mm 0.00 in0.0 mm 0.03 in0.8 mm
05:34 PM 54.4°F12.4°C 49.4°F9.7°C 83% 4.0 mph NNW6.4 kmh NNW 9.0 mph14.5 kmh 30.23 in1023.7 mb 0.00 in0.0 mm 0.00 in0.0 mm 0.03 in0.8 mm
05:36 PM 54.4°F12.4°C 49.4°F9.7°C 83% 3.0 mph NNE4.8 kmh NNE 5.0 mph8.0 kmh 30.24 in1024.0 mb 0.00 in0.0 mm 0.00 in0.0 mm 0.03 in0.8 mm
05:38 PM 54.4°F12.4°C 49.7°F9.8°C 84% 5.0 mph E8.0 kmh E 5.0 mph8.0 kmh 30.24 in1024.0 mb 0.00 in0.0 mm 0.00 in0.0 mm 0.03 in0.8 mm
05:40 PM 54.3°F12.4°C 49.3°F9.6°C 83% 4.0 mph E6.4 kmh E 7.0 mph11.3 kmh 30.24 in1024.0 mb 0.00 in0.0 mm 0.00 in0.0 mm 0.03 in0.8 mm
05:42 PM 54.3°F12.4°C 49.6°F9.8°C 84% 4.0 mph NNE6.4 kmh NNE 4.0 mph6.4 kmh 30.24 in1024.0 mb 0.00 in0.0 mm 0.00 in0.0 mm 0.03 in0.8 mm
05:44 PM 54.2°F12.3°C 49.5°F9.7°C 84% 5.0 mph W8.0 kmh W 5.0 mph8.0 kmh 30.24 in1024.0 mb 0.00 in0.0 mm 0.00 in0.0 mm 0.03 in0.8 mm
05:46 PM 54.2°F12.3°C 49.5°F9.7°C 84% 3.0 mph NNE4.8 kmh NNE 6.0 mph9.7 kmh 30.24 in1024.0 mb 0.00 in0.0 mm 0.00 in0.0 mm 0.03 in0.8 mm
05:48 PM 54.2°F12.3°C 49.5°F9.7°C 84% 2.0 mph NNW3.2 kmh NNW 3.0 mph4.8 kmh 30.24 in1024.0 mb 0.00 in0.0 mm 0.00 in0.0 mm 0.03 in0.8 mm
05:50 PM 54.2°F12.3°C 49.5°F9.7°C 84% Calm Calm 1.0 mph1.6 kmh 30.24 in1024.0 mb 0.00 in0.0 mm 0.00 in0.0 mm 0.03 in0.8 mm
05:52 PM 54.2°F12.3°C 49.5°F9.7°C 84% 6.0 mph N9.7 kmh N 6.0 mph9.7 kmh 30.24 in1024.0 mb 0.00 in0.0 mm 0.00 in0.0 mm 0.03 in0.8 mm
05:54 PM 54.1°F12.3°C 49.4°F9.7°C 84% 2.0 mph NE3.2 kmh NE 2.0 mph3.2 kmh 30.24 in1024.0 mb 0.00 in0.0 mm 0.00 in0.0 mm 0.03 in0.8 mm
05:56 PM 54.1°F12.3°C 49.4°F9.7°C 84% 6.0 mph WNW9.7 kmh WNW 6.0 mph9.7 kmh 30.25 in1024.4 mb 0.00 in0.0 mm 0.00 in0.0 mm 0.03 in0.8 mm
05:58 PM 54.1°F12.3°C 49.4°F9.7°C 84% 2.0 mph NW3.2 kmh NW 6.0 mph9.7 kmh 30.25 in1024.4 mb 0.00 in0.0 mm 0.00 in0.0 mm 0.03 in0.8 mm
06:00 PM 54.0°F12.2°C 49.3°F9.6°C 84% 5.0 mph NNE8.0 kmh NNE 5.0 mph8.0 kmh 30.25 in1024.4 mb 0.00 in0.0 mm 0.00 in0.0 mm 0.03 in0.8 mm
06:02 PM 54.0°F12.2°C 49.3°F9.6°C 84% Calm Calm -- 30.25 in1024.4 mb 0.00 in0.0 mm 0.00 in0.0 mm 0.03 in0.8 mm
06:04 PM 54.0°F12.2°C 49.3°F9.6°C 84% 1.0 mph NW1.6 kmh NW 4.0 mph6.4 kmh 30.25 in1024.4 mb 0.00 in0.0 mm 0.00 in0.0 mm 0.03 in0.8 mm
06:06 PM 53.9°F12.2°C 49.2°F9.6°C 84% 1.0 mph NE1.6 kmh NE 5.0 mph8.0 kmh 30.25 in1024.4 mb 0.00 in0.0 mm 0.00 in0.0 mm 0.03 in0.8 mm
06:08 PM 53.9°F12.2°C 49.2°F9.6°C 84% 3.0 mph ENE4.8 kmh ENE 9.0 mph14.5 kmh 30.25 in1024.4 mb 0.00 in0.0 mm 0.00 in0.0 mm 0.03 in0.8 mm
06:10 PM 53.8°F12.1°C 49.1°F9.5°C 84% 5.0 mph NW8.0 kmh NW 9.0 mph14.5 kmh 30.25 in1024.4 mb 0.00 in0.0 mm 0.00 in0.0 mm 0.03 in0.8 mm
06:12 PM 53.7°F12.1°C 49.0°F9.4°C 84% 4.0 mph NW6.4 kmh NW 7.0 mph11.3 kmh 30.25 in1024.4 mb 0.00 in0.0 mm 0.00 in0.0 mm 0.03 in0.8 mm
06:14 PM 53.7°F12.1°C 49.0°F9.4°C 84% Calm Calm 12.0 mph19.3 kmh 30.25 in1024.4 mb 0.00 in0.0 mm 0.00 in0.0 mm 0.03 in0.8 mm
06:16 PM 53.6°F12.0°C 48.9°F9.4°C 84% 2.0 mph NE3.2 kmh NE 2.0 mph3.2 kmh 30.25 in1024.4 mb 0.00 in0.0 mm 0.00 in0.0 mm 0.03 in0.8 mm
06:18 PM 53.5°F11.9°C 48.8°F9.3°C 84% 1.0 mph NE1.6 kmh NE 1.0 mph1.6 kmh 30.26 in1024.7 mb 0.00 in0.0 mm 0.00 in0.0 mm 0.03 in0.8 mm
06:20 PM 53.5°F11.9°C 48.8°F9.3°C 84% 2.0 mph NNE3.2 kmh NNE 7.0 mph11.3 kmh 30.26 in1024.7 mb 0.00 in0.0 mm 0.00 in0.0 mm 0.03 in0.8 mm
06:22 PM 53.4°F11.9°C 48.7°F9.3°C 84% 7.0 mph ENE11.3 kmh ENE 7.0 mph11.3 kmh 30.26 in1024.7 mb 0.00 in0.0 mm 0.00 in0.0 mm 0.03 in0.8 mm
06:24 PM 53.3°F11.8°C 48.6°F9.2°C 84% Calm Calm 2.0 mph3.2 kmh 30.26 in1024.7 mb 0.00 in0.0 mm 0.00 in0.0 mm 0.03 in0.8 mm
06:26 PM 53.3°F11.8°C 48.6°F9.2°C 84% Calm Calm 6.0 mph9.7 kmh 30.26 in1024.7 mb 0.00 in0.0 mm 0.00 in0.0 mm 0.03 in0.8 mm
06:28 PM 53.2°F11.8°C 48.5°F9.2°C 84% 2.0 mph W3.2 kmh W 4.0 mph6.4 kmh 30.26 in1024.7 mb 0.00 in0.0 mm 0.00 in0.0 mm 0.03 in0.8 mm
06:30 PM 53.2°F11.8°C 48.8°F9.3°C 85% 5.0 mph WSW8.0 kmh WSW 5.0 mph8.0 kmh 30.27 in1025.1 mb 0.00 in0.0 mm 0.00 in0.0 mm 0.03 in0.8 mm
06:32 PM 53.2°F11.8°C 48.5°F9.2°C 84% 2.0 mph NE3.2 kmh NE 3.0 mph4.8 kmh 30.26 in1024.7 mb 0.00 in0.0 mm 0.00 in0.0 mm 0.03 in0.8 mm
06:34 PM 53.1°F11.7°C 48.4°F9.1°C 84% 4.0 mph WNW6.4 kmh WNW 4.0 mph6.4 kmh 30.27 in1025.1 mb 0.00 in0.0 mm 0.00 in0.0 mm 0.03 in0.8 mm
06:36 PM 53.1°F11.7°C 48.4°F9.1°C 84% 2.0 mph NNE3.2 kmh NNE 9.0 mph14.5 kmh 30.27 in1025.1 mb 0.00 in0.0 mm 0.00 in0.0 mm 0.03 in0.8 mm
06:38 PM 53.0°F11.7°C 48.3°F9.1°C 84% 2.0 mph NNW3.2 kmh NNW 2.0 mph3.2 kmh 30.27 in1025.1 mb 0.00 in0.0 mm 0.00 in0.0 mm 0.03 in0.8 mm
06:40 PM 53.0°F11.7°C 48.3°F9.1°C 84% 6.0 mph NW9.7 kmh NW 6.0 mph9.7 kmh 30.27 in1025.1 mb 0.00 in0.0 mm 0.00 in0.0 mm 0.03 in0.8 mm
06:42 PM 53.0°F11.7°C 48.3°F9.1°C 84% 2.0 mph NNE3.2 kmh NNE 2.0 mph3.2 kmh 30.27 in1025.1 mb 0.00 in0.0 mm 0.00 in0.0 mm 0.03 in0.8 mm
06:44 PM 53.0°F11.7°C 48.6°F9.2°C 85% 2.0 mph E3.2 kmh E 4.0 mph6.4 kmh 30.27 in1025.1 mb 0.00 in0.0 mm 0.00 in0.0 mm 0.03 in0.8 mm
06:46 PM 53.0°F11.7°C 48.3°F9.1°C 84% 1.0 mph ENE1.6 kmh ENE 1.0 mph1.6 kmh 30.27 in1025.1 mb 0.00 in0.0 mm 0.00 in0.0 mm 0.03 in0.8 mm
06:48 PM 52.9°F11.6°C 48.2°F9.0°C 84% 2.0 mph WNW3.2 kmh WNW 2.0 mph3.2 kmh 30.27 in1025.1 mb 0.00 in0.0 mm 0.00 in0.0 mm 0.03 in0.8 mm
06:50 PM 52.9°F11.6°C 48.2°F9.0°C 84% 1.0 mph ENE1.6 kmh ENE 1.0 mph1.6 kmh 30.27 in1025.1 mb 0.00 in0.0 mm 0.00 in0.0 mm 0.03 in0.8 mm
06:52 PM 52.8°F11.6°C 48.1°F8.9°C 84% 3.0 mph N4.8 kmh N 3.0 mph4.8 kmh 30.27 in1025.1 mb 0.00 in0.0 mm 0.00 in0.0 mm 0.03 in0.8 mm
06:54 PM 52.8°F11.6°C 48.1°F8.9°C 84% Calm Calm 4.0 mph6.4 kmh 30.27 in1025.1 mb 0.00 in0.0 mm 0.00 in0.0 mm 0.03 in0.8 mm
06:56 PM 52.8°F11.6°C 48.1°F8.9°C 84% 3.0 mph N4.8 kmh N 14.0 mph22.5 kmh 30.27 in1025.1 mb 0.00 in0.0 mm 0.00 in0.0 mm 0.03 in0.8 mm
06:58 PM 52.8°F11.6°C 48.1°F8.9°C 84% 1.0 mph N1.6 kmh N 4.0 mph6.4 kmh 30.28 in1025.4 mb 0.00 in0.0 mm 0.00 in0.0 mm 0.03 in0.8 mm
07:00 PM 52.8°F11.6°C 48.1°F8.9°C 84% 2.0 mph N3.2 kmh N 2.0 mph3.2 kmh 30.28 in1025.4 mb 0.00 in0.0 mm 0.00 in0.0 mm 0.03 in0.8 mm
07:02 PM 52.8°F11.6°C 48.4°F9.1°C 85% 2.0 mph E3.2 kmh E 3.0 mph4.8 kmh 30.28 in1025.4 mb 0.00 in0.0 mm 0.00 in0.0 mm 0.03 in0.8 mm
07:04 PM 52.8°F11.6°C 48.1°F8.9°C 84% 5.0 mph N8.0 kmh N 5.0 mph8.0 kmh 30.28 in1025.4 mb 0.00 in0.0 mm 0.00 in0.0 mm 0.03 in0.8 mm
07:06 PM 52.8°F11.6°C 48.1°F8.9°C 84% 4.0 mph NE6.4 kmh NE 4.0 mph6.4 kmh 30.28 in1025.4 mb 0.00 in0.0 mm 0.00 in0.0 mm 0.03 in0.8 mm
07:08 PM 52.7°F11.5°C 48.0°F8.9°C 84% 7.0 mph N11.3 kmh N 7.0 mph11.3 kmh 30.28 in1025.4 mb 0.00 in0.0 mm 0.00 in0.0 mm 0.03 in0.8 mm
07:10 PM 52.7°F11.5°C 48.0°F8.9°C 84% Calm Calm -- 30.28 in1025.4 mb 0.00 in0.0 mm 0.00 in0.0 mm 0.03 in0.8 mm
07:12 PM 52.7°F11.5°C 48.0°F8.9°C 84% 5.0 mph E8.0 kmh E 7.0 mph11.3 kmh 30.28 in1025.4 mb 0.00 in0.0 mm 0.00 in0.0 mm 0.03 in0.8 mm
07:14 PM 52.7°F11.5°C 48.0°F8.9°C 84% Calm Calm 1.0 mph1.6 kmh 30.28 in1025.4 mb 0.00 in0.0 mm 0.00 in0.0 mm 0.03 in0.8 mm
07:16 PM 52.7°F11.5°C 48.0°F8.9°C 84% Calm Calm 5.0 mph8.0 kmh 30.28 in1025.4 mb 0.00 in0.0 mm 0.00 in0.0 mm 0.03 in0.8 mm
07:18 PM 52.7°F11.5°C 48.0°F8.9°C 84% 5.0 mph NE8.0 kmh NE 11.0 mph17.7 kmh 30.28 in1025.4 mb 0.00 in0.0 mm 0.00 in0.0 mm 0.03 in0.8 mm
07:20 PM 52.7°F11.5°C 48.0°F8.9°C 84% 2.0 mph NW3.2 kmh NW 2.0 mph3.2 kmh 30.29 in1025.7 mb 0.00 in0.0 mm 0.00 in0.0 mm 0.03 in0.8 mm
07:22 PM 52.7°F11.5°C 48.0°F8.9°C 84% Calm Calm 5.0 mph8.0 kmh 30.29 in1025.7 mb 0.00 in0.0 mm 0.00 in0.0 mm 0.03 in0.8 mm
07:24 PM 52.7°F11.5°C 48.0°F8.9°C 84% 1.0 mph NE1.6 kmh NE 4.0 mph6.4 kmh 30.29 in1025.7 mb 0.00 in0.0 mm 0.00 in0.0 mm 0.03 in0.8 mm
07:26 PM 52.6°F11.4°C 47.9°F8.8°C 84% 6.0 mph NNW9.7 kmh NNW 7.0 mph11.3 kmh 30.29 in1025.7 mb 0.00 in0.0 mm 0.00 in0.0 mm 0.03 in0.8 mm
07:28 PM 52.6°F11.4°C 48.2°F9.0°C 85% 3.0 mph N4.8 kmh N 3.0 mph4.8 kmh 30.29 in1025.7 mb 0.00 in0.0 mm 0.00 in0.0 mm 0.03 in0.8 mm
07:30 PM 52.7°F11.5°C 48.3°F9.1°C 85% 3.0 mph N4.8 kmh N 3.0 mph4.8 kmh 30.29 in1025.7 mb 0.00 in0.0 mm 0.00 in0.0 mm 0.03 in0.8 mm
07:32 PM 52.7°F11.5°C 48.0°F8.9°C 84% 1.0 mph N1.6 kmh N 1.0 mph1.6 kmh 30.29 in1025.7 mb 0.00 in0.0 mm 0.00 in0.0 mm 0.03 in0.8 mm
07:34 PM 52.7°F11.5°C 48.0°F8.9°C 84% 2.0 mph ENE3.2 kmh ENE 3.0 mph4.8 kmh 30.29 in1025.7 mb 0.00 in0.0 mm 0.00 in0.0 mm 0.03 in0.8 mm
07:36 PM 52.7°F11.5°C 48.0°F8.9°C 84% Calm Calm 2.0 mph3.2 kmh 30.29 in1025.7 mb 0.00 in0.0 mm 0.00 in0.0 mm 0.03 in0.8 mm
07:38 PM 52.7°F11.5°C 48.3°F9.1°C 85% Calm Calm -- 30.29 in1025.7 mb 0.00 in0.0 mm 0.00 in0.0 mm 0.03 in0.8 mm
07:40 PM 52.7°F11.5°C 48.0°F8.9°C 84% 3.0 mph N4.8 kmh N 3.0 mph4.8 kmh 30.29 in1025.7 mb 0.00 in0.0 mm 0.00 in0.0 mm 0.03 in0.8 mm
07:42 PM 52.7°F11.5°C 48.0°F8.9°C 84% 4.0 mph ENE6.4 kmh ENE 4.0 mph6.4 kmh 30.29 in1025.7 mb 0.00 in0.0 mm 0.00 in0.0 mm 0.03 in0.8 mm
07:44 PM 52.7°F11.5°C 48.0°F8.9°C 84% 3.0 mph N4.8 kmh N 5.0 mph8.0 kmh 30.30 in1026.1 mb 0.00 in0.0 mm 0.00 in0.0 mm 0.03 in0.8 mm
07:46 PM 52.7°F11.5°C 48.0°F8.9°C 84% Calm Calm 1.0 mph1.6 kmh 30.30 in1026.1 mb 0.00 in0.0 mm 0.00 in0.0 mm 0.03 in0.8 mm
07:48 PM 52.7°F11.5°C 48.0°F8.9°C 84% Calm Calm 2.0 mph3.2 kmh 30.30 in1026.1 mb 0.00 in0.0 mm 0.00 in0.0 mm 0.03 in0.8 mm
07:50 PM 52.7°F11.5°C 48.0°F8.9°C 84% 5.0 mph NNW8.0 kmh NNW 5.0 mph8.0 kmh 30.30 in1026.1 mb 0.00 in0.0 mm 0.00 in0.0 mm 0.03 in0.8 mm
07:52 PM 52.7°F11.5°C 48.0°F8.9°C 84% Calm Calm -- 30.30 in1026.1 mb 0.00 in0.0 mm 0.00 in0.0 mm 0.03 in0.8 mm
07:54 PM 52.7°F11.5°C 48.0°F8.9°C 84% 4.0 mph NW6.4 kmh NW 10.0 mph16.1 kmh 30.30 in1026.1 mb 0.00 in0.0 mm 0.00 in0.0 mm 0.03 in0.8 mm
07:56 PM 52.7°F11.5°C 48.0°F8.9°C 84% Calm Calm -- 30.30 in1026.1 mb 0.00 in0.0 mm 0.00 in0.0 mm 0.03 in0.8 mm
07:58 PM 52.7°F11.5°C 48.0°F8.9°C 84% Calm Calm 1.0 mph1.6 kmh 30.30 in1026.1 mb 0.00 in0.0 mm 0.00 in0.0 mm 0.03 in0.8 mm
08:00 PM 52.7°F11.5°C 48.0°F8.9°C 84% 3.0 mph NW4.8 kmh NW 6.0 mph9.7 kmh 30.30 in1026.1 mb 0.00 in0.0 mm 0.00 in0.0 mm 0.03 in0.8 mm
08:02 PM 52.7°F11.5°C 48.3°F9.1°C 85% 1.0 mph NNW1.6 kmh NNW 2.0 mph3.2 kmh 30.30 in1026.1 mb 0.00 in0.0 mm 0.00 in0.0 mm 0.03 in0.8 mm
08:04 PM 52.7°F11.5°C 48.3°F9.1°C 85% Calm Calm -- 30.30 in1026.1 mb 0.00 in0.0 mm 0.00 in0.0 mm 0.03 in0.8 mm
08:06 PM 52.7°F11.5°C 48.3°F9.1°C 85% 5.0 mph ENE8.0 kmh ENE 5.0 mph8.0 kmh 30.30 in1026.1 mb 0.00 in0.0 mm 0.00 in0.0 mm 0.03 in0.8 mm
08:08 PM 52.7°F11.5°C 48.0°F8.9°C 84% 2.0 mph NNW3.2 kmh NNW 6.0 mph9.7 kmh 30.30 in1026.1 mb 0.00 in0.0 mm 0.00 in0.0 mm 0.03 in0.8 mm
08:10 PM 52.7°F11.5°C 48.3°F9.1°C 85% 2.0 mph NE3.2 kmh NE 2.0 mph3.2 kmh 30.30 in1026.1 mb 0.00 in0.0 mm 0.00 in0.0 mm 0.03 in0.8 mm
08:12 PM 52.7°F11.5°C 48.3°F9.1°C 85% Calm Calm 1.0 mph1.6 kmh 30.30 in1026.1 mb 0.00 in0.0 mm 0.00 in0.0 mm 0.03 in0.8 mm
08:14 PM 52.7°F11.5°C 48.3°F9.1°C 85% 4.0 mph N6.4 kmh N 7.0 mph11.3 kmh 30.30 in1026.1 mb 0.00 in0.0 mm 0.00 in0.0 mm 0.03 in0.8 mm
08:16 PM 52.6°F11.4°C 48.2°F9.0°C 85% Calm Calm 2.0 mph3.2 kmh 30.30 in1026.1 mb 0.00 in0.0 mm 0.00 in0.0 mm 0.03 in0.8 mm
08:18 PM 52.6°F11.4°C 48.2°F9.0°C 85% Calm Calm 5.0 mph8.0 kmh 30.31 in1026.4 mb 0.00 in0.0 mm 0.00 in0.0 mm 0.03 in0.8 mm
08:20 PM 52.6°F11.4°C 48.2°F9.0°C 85% 4.0 mph E6.4 kmh E 4.0 mph6.4 kmh 30.31 in1026.4 mb 0.00 in0.0 mm 0.00 in0.0 mm 0.03 in0.8 mm
08:22 PM 52.6°F11.4°C 48.2°F9.0°C 85% 1.0 mph E1.6 kmh E 2.0 mph3.2 kmh 30.30 in1026.1 mb 0.00 in0.0 mm 0.00 in0.0 mm 0.03 in0.8 mm
08:24 PM 52.5°F11.4°C 48.1°F8.9°C 85% 3.0 mph ENE4.8 kmh ENE 3.0 mph4.8 kmh 30.31 in1026.4 mb 0.00 in0.0 mm 0.00 in0.0 mm 0.03 in0.8 mm
08:26 PM 52.5°F11.4°C 48.1°F8.9°C 85% 2.0 mph NW3.2 kmh NW 3.0 mph4.8 kmh 30.31 in1026.4 mb 0.00 in0.0 mm 0.00 in0.0 mm 0.03 in0.8 mm
08:28 PM 52.5°F11.4°C 48.1°F8.9°C 85% 2.0 mph NE3.2 kmh NE 6.0 mph9.7 kmh 30.31 in1026.4 mb 0.00 in0.0 mm 0.00 in0.0 mm 0.03 in0.8 mm
08:30 PM 52.5°F11.4°C 48.1°F8.9°C 85% 3.0 mph ESE4.8 kmh ESE 4.0 mph6.4 kmh 30.31 in1026.4 mb 0.00 in0.0 mm 0.00 in0.0 mm 0.03 in0.8 mm
08:32 PM 52.5°F11.4°C 48.1°F8.9°C 85% Calm Calm -- 30.31 in1026.4 mb 0.00 in0.0 mm 0.00 in0.0 mm 0.03 in0.8 mm
08:34 PM 52.5°F11.4°C 48.1°F8.9°C 85% 4.0 mph NNW6.4 kmh NNW 4.0 mph6.4 kmh 30.31 in1026.4 mb 0.00 in0.0 mm 0.00 in0.0 mm 0.03 in0.8 mm
08:36 PM 52.4°F11.3°C 48.0°F8.9°C 85% 2.0 mph NNW3.2 kmh NNW 5.0 mph8.0 kmh 30.31 in1026.4 mb 0.00 in0.0 mm 0.00 in0.0 mm 0.03 in0.8 mm
08:38 PM 52.4°F11.3°C 48.0°F8.9°C 85% 1.0 mph NNW1.6 kmh NNW 1.0 mph1.6 kmh 30.31 in1026.4 mb 0.00 in0.0 mm 0.00 in0.0 mm 0.03 in0.8 mm
08:40 PM 52.4°F11.3°C 48.0°F8.9°C 85% Calm Calm 2.0 mph3.2 kmh 30.32 in1026.8 mb 0.00 in0.0 mm 0.00 in0.0 mm 0.03 in0.8 mm
08:42 PM 52.4°F11.3°C 48.0°F8.9°C 85% Calm Calm 4.0 mph6.4 kmh 30.31 in1026.4 mb 0.00 in0.0 mm 0.00 in0.0 mm 0.03 in0.8 mm
08:44 PM 52.4°F11.3°C 48.0°F8.9°C 85% 3.0 mph N4.8 kmh N 3.0 mph4.8 kmh 30.31 in1026.4 mb 0.00 in0.0 mm 0.00 in0.0 mm 0.03 in0.8 mm
08:46 PM 52.4°F11.3°C 48.0°F8.9°C 85% 4.0 mph NNE6.4 kmh NNE 4.0 mph6.4 kmh 30.32 in1026.8 mb 0.00 in0.0 mm 0.00 in0.0 mm 0.03 in0.8 mm
08:48 PM 52.4°F11.3°C 48.0°F8.9°C 85% Calm Calm 5.0 mph8.0 kmh 30.32 in1026.8 mb 0.00 in0.0 mm 0.00 in0.0 mm 0.03 in0.8 mm
08:50 PM 52.4°F11.3°C 48.0°F8.9°C 85% 2.0 mph NNE3.2 kmh NNE 2.0 mph3.2 kmh 30.32 in1026.8 mb 0.00 in0.0 mm 0.00 in0.0 mm 0.03 in0.8 mm
08:52 PM 52.4°F11.3°C 48.0°F8.9°C 85% 4.0 mph NNE6.4 kmh NNE 6.0 mph9.7 kmh 30.32 in1026.8 mb 0.00 in0.0 mm 0.00 in0.0 mm 0.03 in0.8 mm
08:54 PM 52.4°F11.3°C 48.0°F8.9°C 85% 2.0 mph NW3.2 kmh NW 5.0 mph8.0 kmh 30.32 in1026.8 mb 0.00 in0.0 mm 0.00 in0.0 mm 0.03 in0.8 mm
08:56 PM 52.4°F11.3°C 48.0°F8.9°C 85% Calm Calm -- 30.32 in1026.8 mb 0.00 in0.0 mm 0.00 in0.0 mm 0.03 in0.8 mm
08:58 PM 52.4°F11.3°C 48.0°F8.9°C 85% 1.0 mph NW1.6 kmh NW 1.0 mph1.6 kmh 30.32 in1026.8 mb 0.00 in0.0 mm 0.00 in0.0 mm 0.03 in0.8 mm
09:00 PM 52.4°F11.3°C 48.3°F9.1°C 86% 3.0 mph NW4.8 kmh NW 4.0 mph6.4 kmh 30.32 in1026.8 mb 0.00 in0.0 mm 0.00 in0.0 mm 0.03 in0.8 mm
09:02 PM 52.4°F11.3°C 48.3°F9.1°C 86% Calm Calm 2.0 mph3.2 kmh 30.32 in1026.8 mb 0.00 in0.0 mm 0.00 in0.0 mm 0.03 in0.8 mm
09:04 PM 52.5°F11.4°C 48.4°F9.1°C 86% 4.0 mph NNW6.4 kmh NNW 4.0 mph6.4 kmh 30.32 in1026.8 mb 0.00 in0.0 mm 0.00 in0.0 mm 0.03 in0.8 mm
09:06 PM 52.4°F11.3°C 48.0°F8.9°C 85% 2.0 mph NE3.2 kmh NE 2.0 mph3.2 kmh 30.32 in1026.8 mb 0.00 in0.0 mm 0.00 in0.0 mm 0.03 in0.8 mm
09:08 PM 52.4°F11.3°C 48.0°F8.9°C 85% 1.0 mph NNE1.6 kmh NNE 5.0 mph8.0 kmh 30.32 in1026.8 mb 0.00 in0.0 mm 0.00 in0.0 mm 0.03 in0.8 mm
09:10 PM 52.4°F11.3°C 48.3°F9.1°C 86% 1.0 mph NNE1.6 kmh NNE 2.0 mph3.2 kmh 30.32 in1026.8 mb 0.00 in0.0 mm 0.00 in0.0 mm 0.03 in0.8 mm
09:12 PM 52.4°F11.3°C 48.3°F9.1°C 86% Calm Calm 1.0 mph1.6 kmh 30.32 in1026.8 mb 0.00 in0.0 mm 0.00 in0.0 mm 0.03 in0.8 mm
09:14 PM 52.4°F11.3°C 48.3°F9.1°C 86% Calm Calm -- 30.32 in1026.8 mb 0.00 in0.0 mm 0.00 in0.0 mm 0.03 in0.8 mm
09:16 PM 52.4°F11.3°C 48.3°F9.1°C 86% Calm Calm -- 30.32 in1026.8 mb 0.00 in0.0 mm 0.00 in0.0 mm 0.03 in0.8 mm
09:18 PM 52.4°F11.3°C 48.3°F9.1°C 86% Calm Calm 2.0 mph3.2 kmh 30.32 in1026.8 mb 0.00 in0.0 mm 0.00 in0.0 mm 0.03 in0.8 mm
09:20 PM 52.4°F11.3°C 48.3°F9.1°C 86% Calm Calm -- 30.32 in1026.8 mb 0.00 in0.0 mm 0.00 in0.0 mm 0.03 in0.8 mm
09:22 PM 52.3°F11.3°C 48.2°F9.0°C 86% 1.0 mph N1.6 kmh N 1.0 mph1.6 kmh 30.32 in1026.8 mb 0.00 in0.0 mm 0.00 in0.0 mm 0.03 in0.8 mm
09:24 PM 52.3°F11.3°C 48.2°F9.0°C 86% 1.0 mph NE1.6 kmh NE 3.0 mph4.8 kmh 30.32 in1026.8 mb 0.00 in0.0 mm 0.00 in0.0 mm 0.03 in0.8 mm
09:26 PM 52.3°F11.3°C 48.2°F9.0°C 86% 1.0 mph NNE1.6 kmh NNE 2.0 mph3.2 kmh 30.32 in1026.8 mb 0.00 in0.0 mm 0.00 in0.0 mm 0.03 in0.8 mm
09:28 PM 52.3°F11.3°C 48.2°F9.0°C 86% 3.0 mph NE4.8 kmh NE 3.0 mph4.8 kmh 30.32 in1026.8 mb 0.00 in0.0 mm 0.00 in0.0 mm 0.03 in0.8 mm
09:30 PM 52.3°F11.3°C 48.2°F9.0°C 86% Calm Calm -- 30.33 in1027.1 mb 0.00 in0.0 mm 0.00 in0.0 mm 0.03 in0.8 mm
09:32 PM 52.3°F11.3°C 48.2°F9.0°C 86% Calm Calm -- 30.33 in1027.1 mb 0.00 in0.0 mm 0.00 in0.0 mm 0.03 in0.8 mm
09:34 PM 52.3°F11.3°C 48.2°F9.0°C 86% Calm Calm 2.0 mph3.2 kmh 30.33 in1027.1 mb 0.00 in0.0 mm 0.00 in0.0 mm 0.03 in0.8 mm
09:36 PM 52.2°F11.2°C 48.2°F9.0°C 86% Calm Calm -- 30.33 in1027.1 mb 0.00 in0.0 mm 0.00 in0.0 mm 0.03 in0.8 mm
09:38 PM 52.2°F11.2°C 48.2°F9.0°C 86% Calm Calm -- 30.33 in1027.1 mb 0.00 in0.0 mm 0.00 in0.0 mm 0.03 in0.8 mm
09:40 PM 52.1°F11.2°C 48.1°F8.9°C 86% Calm Calm 4.0 mph6.4 kmh 30.33 in1027.1 mb 0.00 in0.0 mm 0.00 in0.0 mm 0.03 in0.8 mm
09:42 PM 52.1°F11.2°C 48.1°F8.9°C 86% 1.0 mph NNE1.6 kmh NNE 1.0 mph1.6 kmh 30.33 in1027.1 mb 0.00 in0.0 mm 0.00 in0.0 mm 0.03 in0.8 mm
09:44 PM 52.1°F11.2°C 48.1°F8.9°C 86% Calm Calm -- 30.33 in1027.1 mb 0.00 in0.0 mm 0.00 in0.0 mm 0.03 in0.8 mm
09:46 PM 52.1°F11.2°C 48.1°F8.9°C 86% Calm Calm 2.0 mph3.2 kmh 30.33 in1027.1 mb 0.00 in0.0 mm 0.00 in0.0 mm 0.03 in0.8 mm
09:48 PM 52.1°F11.2°C 48.1°F8.9°C 86% 6.0 mph NW9.7 kmh NW 6.0 mph9.7 kmh 30.33 in1027.1 mb 0.00 in0.0 mm 0.00 in0.0 mm 0.03 in0.8 mm
09:50 PM 52.1°F11.2°C 48.1°F8.9°C 86% 5.0 mph E8.0 kmh E 5.0 mph8.0 kmh 30.33 in1027.1 mb 0.00 in0.0 mm 0.00 in0.0 mm 0.03 in0.8 mm
09:52 PM 52.0°F11.1°C 48.0°F8.9°C 86% Calm Calm -- 30.33 in1027.1 mb 0.00 in0.0 mm 0.00 in0.0 mm 0.03 in0.8 mm
09:54 PM 52.0°F11.1°C 48.0°F8.9°C 86% 1.0 mph ENE1.6 kmh ENE 5.0 mph8.0 kmh 30.33 in1027.1 mb 0.00 in0.0 mm 0.00 in0.0 mm 0.03 in0.8 mm
09:56 PM 52.0°F11.1°C 48.0°F8.9°C 86% Calm Calm -- 30.33 in1027.1 mb 0.00 in0.0 mm 0.00 in0.0 mm 0.03 in0.8 mm
09:58 PM 52.0°F11.1°C 48.0°F8.9°C 86% Calm Calm -- 30.33 in1027.1 mb 0.00 in0.0 mm 0.00 in0.0 mm 0.03 in0.8 mm
10:00 PM 52.0°F11.1°C 48.3°F9.1°C 87% 3.0 mph N4.8 kmh N 3.0 mph4.8 kmh 30.33 in1027.1 mb 0.00 in0.0 mm 0.00 in0.0 mm 0.03 in0.8 mm
10:02 PM 52.0°F11.1°C 48.3°F9.1°C 87% 5.0 mph NW8.0 kmh NW 5.0 mph8.0 kmh 30.33 in1027.1 mb 0.00 in0.0 mm 0.00 in0.0 mm 0.03 in0.8 mm
10:04 PM 52.0°F11.1°C 48.3°F9.1°C 87% 1.0 mph NNW1.6 kmh NNW 2.0 mph3.2 kmh 30.33 in1027.1 mb 0.00 in0.0 mm 0.00 in0.0 mm 0.03 in0.8 mm
10:06 PM 52.0°F11.1°C 48.3°F9.1°C 87% Calm Calm -- 30.33 in1027.1 mb 0.00 in0.0 mm 0.00 in0.0 mm 0.03 in0.8 mm
10:08 PM 52.0°F11.1°C 48.0°F8.9°C 86% 2.0 mph E3.2 kmh E 3.0 mph4.8 kmh 30.34 in1027.4 mb 0.00 in0.0 mm 0.00 in0.0 mm 0.03 in0.8 mm
10:10 PM 52.0°F11.1°C 48.0°F8.9°C 86% 2.0 mph NW3.2 kmh NW 3.0 mph4.8 kmh 30.34 in1027.4 mb 0.00 in0.0 mm 0.00 in0.0 mm 0.03 in0.8 mm
10:12 PM 52.0°F11.1°C 48.0°F8.9°C 86% Calm Calm -- 30.33 in1027.1 mb 0.00 in0.0 mm 0.00 in0.0 mm 0.03 in0.8 mm
10:14 PM 52.0°F11.1°C 48.0°F8.9°C 86% Calm Calm 1.0 mph1.6 kmh 30.33 in1027.1 mb 0.00 in0.0 mm 0.00 in0.0 mm 0.03 in0.8 mm
10:16 PM 52.0°F11.1°C 48.0°F8.9°C 86% Calm Calm -- 30.33 in1027.1 mb 0.00 in0.0 mm 0.00 in0.0 mm 0.03 in0.8 mm
10:18 PM 52.0°F11.1°C 48.0°F8.9°C 86% 3.0 mph NW4.8 kmh NW 6.0 mph9.7 kmh 30.33 in1027.1 mb 0.00 in0.0 mm 0.00 in0.0 mm 0.03 in0.8 mm
10:20 PM 52.0°F11.1°C 48.0°F8.9°C 86% Calm Calm -- 30.33 in1027.1 mb 0.00 in0.0 mm 0.00 in0.0 mm 0.03 in0.8 mm
10:22 PM 52.0°F11.1°C 48.0°F8.9°C 86% Calm Calm -- 30.34 in1027.4 mb 0.00 in0.0 mm 0.00 in0.0 mm 0.03 in0.8 mm
10:24 PM 52.0°F11.1°C 48.0°F8.9°C 86% Calm Calm -- 30.34 in1027.4 mb 0.00 in0.0 mm 0.00 in0.0 mm 0.03 in0.8 mm
10:26 PM 51.9°F11.1°C 47.9°F8.8°C 86% 2.0 mph NW3.2 kmh NW 2.0 mph3.2 kmh 30.33 in1027.1 mb 0.00 in0.0 mm 0.00 in0.0 mm 0.03 in0.8 mm
10:28 PM 51.9°F11.1°C 47.9°F8.8°C 86% Calm Calm -- 30.34 in1027.4 mb 0.00 in0.0 mm 0.00 in0.0 mm 0.03 in0.8 mm
10:30 PM 51.9°F11.1°C 47.9°F8.8°C 86% Calm Calm -- 30.34 in1027.4 mb 0.00 in0.0 mm 0.00 in0.0 mm 0.03 in0.8 mm
10:32 PM 51.9°F11.1°C 47.9°F8.8°C 86% 1.0 mph NNW1.6 kmh NNW 1.0 mph1.6 kmh 30.33 in1027.1 mb 0.00 in0.0 mm 0.00 in0.0 mm 0.03 in0.8 mm
10:34 PM 51.9°F11.1°C 47.9°F8.8°C 86% 2.0 mph N3.2 kmh N 3.0 mph4.8 kmh 30.34 in1027.4 mb 0.00 in0.0 mm 0.00 in0.0 mm 0.03 in0.8 mm
10:36 PM 51.9°F11.1°C 47.9°F8.8°C 86% Calm Calm 1.0 mph1.6 kmh 30.33 in1027.1 mb 0.00 in0.0 mm 0.00 in0.0 mm 0.03 in0.8 mm
10:38 PM 51.9°F11.1°C 47.9°F8.8°C 86% Calm Calm -- 30.33 in1027.1 mb 0.00 in0.0 mm 0.00 in0.0 mm 0.03 in0.8 mm
10:40 PM 51.9°F11.1°C 47.9°F8.8°C 86% Calm Calm -- 30.33 in1027.1 mb 0.00 in0.0 mm 0.00 in0.0 mm 0.03 in0.8 mm
10:42 PM 51.9°F11.1°C 47.9°F8.8°C 86% 1.0 mph ENE1.6 kmh ENE 4.0 mph6.4 kmh 30.33 in1027.1 mb 0.00 in0.0 mm 0.00 in0.0 mm 0.03 in0.8 mm
10:44 PM 51.9°F11.1°C 47.9°F8.8°C 86% Calm Calm -- 30.33 in1027.1 mb 0.00 in0.0 mm 0.00 in0.0 mm 0.03 in0.8 mm
10:46 PM 52.0°F11.1°C 48.0°F8.9°C 86% Calm Calm -- 30.33 in1027.1 mb 0.00 in0.0 mm 0.00 in0.0 mm 0.03 in0.8 mm
10:48 PM 51.9°F11.1°C 47.9°F8.8°C 86% Calm Calm 3.0 mph4.8 kmh 30.33 in1027.1 mb 0.00 in0.0 mm 0.00 in0.0 mm 0.03 in0.8 mm
10:50 PM 52.0°F11.1°C 48.0°F8.9°C 86% Calm Calm 4.0 mph6.4 kmh 30.34 in1027.4 mb 0.00 in0.0 mm 0.00 in0.0 mm 0.03 in0.8 mm
10:52 PM 52.0°F11.1°C 48.0°F8.9°C 86% Calm Calm 3.0 mph4.8 kmh 30.33 in1027.1 mb 0.00 in0.0 mm 0.00 in0.0 mm 0.03 in0.8 mm
10:54 PM 52.0°F11.1°C 48.0°F8.9°C 86% Calm Calm 2.0 mph3.2 kmh 30.34 in1027.4 mb 0.00 in0.0 mm 0.00 in0.0 mm 0.03 in0.8 mm
10:56 PM 52.0°F11.1°C 48.0°F8.9°C 86% Calm Calm -- 30.34 in1027.4 mb 0.00 in0.0 mm 0.00 in0.0 mm 0.03 in0.8 mm
10:58 PM 52.0°F11.1°C 48.0°F8.9°C 86% Calm Calm 6.0 mph9.7 kmh 30.34 in1027.4 mb 0.00 in0.0 mm 0.00 in0.0 mm 0.03 in0.8 mm
11:00 PM 52.0°F11.1°C 48.0°F8.9°C 86% 1.0 mph NNE1.6 kmh NNE 1.0 mph1.6 kmh 30.34 in1027.4 mb 0.00 in0.0 mm 0.00 in0.0 mm 0.03 in0.8 mm
11:02 PM 52.0°F11.1°C 48.0°F8.9°C 86% Calm Calm -- 30.34 in1027.4 mb 0.00 in0.0 mm 0.00 in0.0 mm 0.03 in0.8 mm
11:04 PM 52.1°F11.2°C 48.1°F8.9°C 86% Calm Calm -- 30.34 in1027.4 mb 0.00 in0.0 mm 0.00 in0.0 mm 0.03 in0.8 mm
11:06 PM 52.1°F11.2°C 48.1°F8.9°C 86% 1.0 mph N1.6 kmh N 2.0 mph3.2 kmh 30.34 in1027.4 mb 0.00 in0.0 mm 0.00 in0.0 mm 0.03 in0.8 mm
11:08 PM 52.1°F11.2°C 48.1°F8.9°C 86% 3.0 mph NNW4.8 kmh NNW 3.0 mph4.8 kmh 30.34 in1027.4 mb 0.00 in0.0 mm 0.00 in0.0 mm 0.03 in0.8 mm
11:10 PM 52.1°F11.2°C 48.1°F8.9°C 86% 1.0 mph N1.6 kmh N 4.0 mph6.4 kmh 30.34 in1027.4 mb 0.00 in0.0 mm 0.00 in0.0 mm 0.03 in0.8 mm
11:12 PM 52.1°F11.2°C 48.1°F8.9°C 86% 1.0 mph N1.6 kmh N 1.0 mph1.6 kmh 30.34 in1027.4 mb 0.00 in0.0 mm 0.00 in0.0 mm 0.03 in0.8 mm
11:14 PM 52.1°F11.2°C 47.7°F8.7°C 85% Calm Calm 2.0 mph3.2 kmh 30.34 in1027.4 mb 0.00 in0.0 mm 0.00 in0.0 mm 0.03 in0.8 mm
11:16 PM 52.1°F11.2°C 47.7°F8.7°C 85% Calm Calm -- 30.34 in1027.4 mb 0.00 in0.0 mm 0.00 in0.0 mm 0.03 in0.8 mm
11:18 PM 52.1°F11.2°C 47.7°F8.7°C 85% 3.0 mph NE4.8 kmh NE 3.0 mph4.8 kmh 30.34 in1027.4 mb 0.00 in0.0 mm 0.00 in0.0 mm 0.03 in0.8 mm
11:20 PM 52.1°F11.2°C 47.7°F8.7°C 85% 5.0 mph NE8.0 kmh NE 5.0 mph8.0 kmh 30.34 in1027.4 mb 0.00 in0.0 mm 0.00 in0.0 mm 0.03 in0.8 mm
11:22 PM 52.1°F11.2°C 47.7°F8.7°C 85% 2.0 mph NE3.2 kmh NE 2.0 mph3.2 kmh 30.33 in1027.1 mb 0.00 in0.0 mm 0.00 in0.0 mm 0.03 in0.8 mm
11:24 PM 52.0°F11.1°C 47.6°F8.7°C 85% Calm Calm -- 30.34 in1027.4 mb 0.00 in0.0 mm 0.00 in0.0 mm 0.03 in0.8 mm
11:26 PM 52.1°F11.2°C 47.7°F8.7°C 85% 3.0 mph NE4.8 kmh NE 3.0 mph4.8 kmh 30.34 in1027.4 mb 0.00 in0.0 mm 0.00 in0.0 mm 0.03 in0.8 mm
11:28 PM 52.1°F11.2°C 47.7°F8.7°C 85% 2.0 mph NW3.2 kmh NW 6.0 mph9.7 kmh 30.34 in1027.4 mb 0.00 in0.0 mm 0.00 in0.0 mm 0.03 in0.8 mm
11:30 PM 52.1°F11.2°C 47.7°F8.7°C 85% Calm Calm -- 30.34 in1027.4 mb 0.00 in0.0 mm 0.00 in0.0 mm 0.03 in0.8 mm
11:32 PM 52.1°F11.2°C 47.7°F8.7°C 85% Calm Calm -- 30.34 in1027.4 mb 0.00 in0.0 mm 0.00 in0.0 mm 0.03 in0.8 mm
11:34 PM 52.1°F11.2°C 47.7°F8.7°C 85% Calm Calm -- 30.33 in1027.1 mb 0.00 in0.0 mm 0.00 in0.0 mm 0.03 in0.8 mm
11:36 PM 52.1°F11.2°C 48.1°F8.9°C 86% 2.0 mph NNW3.2 kmh NNW 3.0 mph4.8 kmh 30.34 in1027.4 mb 0.00 in0.0 mm 0.00 in0.0 mm 0.03 in0.8 mm
11:38 PM 52.2°F11.2°C 48.2°F9.0°C 86% 1.0 mph NNW1.6 kmh NNW 1.0 mph1.6 kmh 30.34 in1027.4 mb 0.00 in0.0 mm 0.00 in0.0 mm 0.03 in0.8 mm
11:40 PM 52.3°F11.3°C 48.6°F9.2°C 87% Calm Calm -- 30.34 in1027.4 mb 0.00 in0.0 mm 0.00 in0.0 mm 0.03 in0.8 mm
11:42 PM 52.3°F11.3°C 48.2°F9.0°C 86% Calm Calm -- 30.34 in1027.4 mb 0.00 in0.0 mm 0.00 in0.0 mm 0.03 in0.8 mm
11:44 PM 52.3°F11.3°C 48.2°F9.0°C 86% Calm Calm -- 30.34 in1027.4 mb 0.00 in0.0 mm 0.00 in0.0 mm 0.03 in0.8 mm
11:46 PM 52.3°F11.3°C 48.2°F9.0°C 86% Calm Calm -- 30.34 in1027.4 mb 0.00 in0.0 mm 0.00 in0.0 mm 0.03 in0.8 mm
11:48 PM 52.3°F11.3°C 47.9°F8.8°C 85% Calm Calm -- 30.34 in1027.4 mb 0.00 in0.0 mm 0.00 in0.0 mm 0.03 in0.8 mm
11:50 PM 52.3°F11.3°C 47.9°F8.8°C 85% Calm Calm -- 30.34 in1027.4 mb 0.00 in0.0 mm 0.00 in0.0 mm 0.03 in0.8 mm
11:52 PM 52.3°F11.3°C 47.9°F8.8°C 85% Calm Calm -- 30.34 in1027.4 mb 0.00 in0.0 mm 0.00 in0.0 mm 0.03 in0.8 mm
11:54 PM 52.3°F11.3°C 47.9°F8.8°C 85% Calm Calm -- 30.34 in1027.4 mb 0.00 in0.0 mm 0.00 in0.0 mm 0.03 in0.8 mm
11:56 PM 52.3°F11.3°C 47.9°F8.8°C 85% Calm Calm -- 30.34 in1027.4 mb 0.00 in0.0 mm 0.00 in0.0 mm 0.03 in0.8 mm
11:58 PM 52.3°F11.3°C 47.9°F8.8°C 85% Calm Calm -- 30.34 in1027.4 mb 0.00 in0.0 mm 0.00 in0.0 mm 0.03 in0.8 mm